<?xml version="1.0" encoding="UTF-8" standalone="no" ?>
<gpx xmlns="http://www.topografix.com/GPX/1/1" xmlns:xsi="http://www.w3.org/2001/XMLSchema-instance" xsi:schemaLocation="http://www.topografix.com/GPX/1/1 http://www.topografix.com/GPX/1/1/gpx.xsd" version="1.1" creator="VisuGPX - https://www.visugpx.com">
  <metadata>
    <name>83-V-St Antonin</name>
    <desc><![CDATA[83-V-St Antonin : les Terres Blanches (5-12-14)]]></desc>
  </metadata>
  <trk>
    <name><![CDATA[St Antonin les terres Blanches 6km8  D 130m F 1 3h00 Ve]]></name>
    <trkseg>
      <trkpt lat="43.51725" lon="6.32668">
        <ele>340.1</ele>
        <time>2016-02-26T12:42:45Z</time>
      </trkpt>
      <trkpt lat="43.51724" lon="6.32667">
        <ele>340.1</ele>
        <time>2016-02-26T12:42:46Z</time>
      </trkpt>
      <trkpt lat="43.51723" lon="6.32654">
        <ele>338.9</ele>
        <time>2016-02-26T12:47:24Z</time>
      </trkpt>
      <trkpt lat="43.51731" lon="6.32645">
        <ele>338.8</ele>
        <time>2016-02-26T12:47:34Z</time>
      </trkpt>
      <trkpt lat="43.51724" lon="6.32653">
        <ele>338.9</ele>
        <time>2016-02-26T12:48:33Z</time>
      </trkpt>
      <trkpt lat="43.51729" lon="6.32643">
        <ele>338.8</ele>
        <time>2016-02-26T12:48:59Z</time>
      </trkpt>
      <trkpt lat="43.51737" lon="6.32637">
        <ele>338.7</ele>
        <time>2016-02-26T12:49:07Z</time>
      </trkpt>
      <trkpt lat="43.51745" lon="6.32631">
        <ele>339.4</ele>
        <time>2016-02-26T12:49:17Z</time>
      </trkpt>
      <trkpt lat="43.51751" lon="6.32621">
        <ele>340.1</ele>
        <time>2016-02-26T12:49:26Z</time>
      </trkpt>
      <trkpt lat="43.51758" lon="6.32612">
        <ele>340.6</ele>
        <time>2016-02-26T12:49:35Z</time>
      </trkpt>
      <trkpt lat="43.51766" lon="6.32606">
        <ele>341.3</ele>
        <time>2016-02-26T12:49:43Z</time>
      </trkpt>
      <trkpt lat="43.51774" lon="6.32598">
        <ele>341.7</ele>
        <time>2016-02-26T12:49:52Z</time>
      </trkpt>
      <trkpt lat="43.51782" lon="6.3259">
        <ele>342.6</ele>
        <time>2016-02-26T12:50:00Z</time>
      </trkpt>
      <trkpt lat="43.51788" lon="6.32579">
        <ele>343.3</ele>
        <time>2016-02-26T12:50:10Z</time>
      </trkpt>
      <trkpt lat="43.51793" lon="6.32568">
        <ele>344.9</ele>
        <time>2016-02-26T12:50:19Z</time>
      </trkpt>
      <trkpt lat="43.51796" lon="6.32556">
        <ele>346.2</ele>
        <time>2016-02-26T12:50:28Z</time>
      </trkpt>
      <trkpt lat="43.51797" lon="6.32544">
        <ele>347.6</ele>
        <time>2016-02-26T12:50:38Z</time>
      </trkpt>
      <trkpt lat="43.51798" lon="6.3253">
        <ele>348.1</ele>
        <time>2016-02-26T12:50:45Z</time>
      </trkpt>
      <trkpt lat="43.51799" lon="6.32517">
        <ele>348.8</ele>
        <time>2016-02-26T12:50:53Z</time>
      </trkpt>
      <trkpt lat="43.51802" lon="6.32504">
        <ele>349.8</ele>
        <time>2016-02-26T12:51:02Z</time>
      </trkpt>
      <trkpt lat="43.51807" lon="6.3249">
        <ele>350</ele>
        <time>2016-02-26T12:51:09Z</time>
      </trkpt>
      <trkpt lat="43.51811" lon="6.32477">
        <ele>350.2</ele>
        <time>2016-02-26T12:51:16Z</time>
      </trkpt>
      <trkpt lat="43.51815" lon="6.32463">
        <ele>351.2</ele>
        <time>2016-02-26T12:51:25Z</time>
      </trkpt>
      <trkpt lat="43.51825" lon="6.3246">
        <ele>352</ele>
        <time>2016-02-26T12:51:37Z</time>
      </trkpt>
      <trkpt lat="43.51834" lon="6.32461">
        <ele>352.7</ele>
        <time>2016-02-26T12:51:47Z</time>
      </trkpt>
      <trkpt lat="43.51843" lon="6.32463">
        <ele>353.2</ele>
        <time>2016-02-26T12:51:58Z</time>
      </trkpt>
      <trkpt lat="43.51853" lon="6.32464">
        <ele>353.4</ele>
        <time>2016-02-26T12:52:06Z</time>
      </trkpt>
      <trkpt lat="43.51862" lon="6.32468">
        <ele>354.2</ele>
        <time>2016-02-26T12:52:14Z</time>
      </trkpt>
      <trkpt lat="43.51871" lon="6.32467">
        <ele>354.5</ele>
        <time>2016-02-26T12:52:24Z</time>
      </trkpt>
      <trkpt lat="43.5188" lon="6.32467">
        <ele>356.4</ele>
        <time>2016-02-26T12:52:57Z</time>
      </trkpt>
      <trkpt lat="43.5189" lon="6.3247">
        <ele>356.9</ele>
        <time>2016-02-26T12:53:04Z</time>
      </trkpt>
      <trkpt lat="43.51899" lon="6.32472">
        <ele>357.8</ele>
        <time>2016-02-26T12:53:15Z</time>
      </trkpt>
      <trkpt lat="43.51907" lon="6.32477">
        <ele>358.2</ele>
        <time>2016-02-26T12:53:20Z</time>
      </trkpt>
      <trkpt lat="43.51917" lon="6.32478">
        <ele>358.6</ele>
        <time>2016-02-26T12:53:28Z</time>
      </trkpt>
      <trkpt lat="43.51927" lon="6.32477">
        <ele>359.3</ele>
        <time>2016-02-26T12:53:38Z</time>
      </trkpt>
      <trkpt lat="43.51936" lon="6.32477">
        <ele>359.5</ele>
        <time>2016-02-26T12:53:45Z</time>
      </trkpt>
      <trkpt lat="43.51946" lon="6.32479">
        <ele>360</ele>
        <time>2016-02-26T12:53:55Z</time>
      </trkpt>
      <trkpt lat="43.51955" lon="6.32481">
        <ele>360.3</ele>
        <time>2016-02-26T12:54:00Z</time>
      </trkpt>
      <trkpt lat="43.51965" lon="6.32483">
        <ele>360.9</ele>
        <time>2016-02-26T12:54:11Z</time>
      </trkpt>
      <trkpt lat="43.51975" lon="6.32484">
        <ele>361.4</ele>
        <time>2016-02-26T12:54:22Z</time>
      </trkpt>
      <trkpt lat="43.51984" lon="6.32484">
        <ele>361.9</ele>
        <time>2016-02-26T12:54:29Z</time>
      </trkpt>
      <trkpt lat="43.51995" lon="6.32487">
        <ele>362.9</ele>
        <time>2016-02-26T12:54:40Z</time>
      </trkpt>
      <trkpt lat="43.52004" lon="6.3249">
        <ele>363.8</ele>
        <time>2016-02-26T12:54:49Z</time>
      </trkpt>
      <trkpt lat="43.52014" lon="6.3249">
        <ele>364.1</ele>
        <time>2016-02-26T12:54:59Z</time>
      </trkpt>
      <trkpt lat="43.52023" lon="6.32492">
        <ele>364.5</ele>
        <time>2016-02-26T12:55:10Z</time>
      </trkpt>
      <trkpt lat="43.52032" lon="6.32491">
        <ele>365.2</ele>
        <time>2016-02-26T12:55:27Z</time>
      </trkpt>
      <trkpt lat="43.5204" lon="6.32483">
        <ele>365.5</ele>
        <time>2016-02-26T12:55:37Z</time>
      </trkpt>
      <trkpt lat="43.52047" lon="6.32475">
        <ele>365.5</ele>
        <time>2016-02-26T12:55:45Z</time>
      </trkpt>
      <trkpt lat="43.52054" lon="6.32466">
        <ele>365.6</ele>
        <time>2016-02-26T12:55:58Z</time>
      </trkpt>
      <trkpt lat="43.52063" lon="6.32462">
        <ele>365.7</ele>
        <time>2016-02-26T12:56:05Z</time>
      </trkpt>
      <trkpt lat="43.52071" lon="6.32454">
        <ele>366.2</ele>
        <time>2016-02-26T12:56:15Z</time>
      </trkpt>
      <trkpt lat="43.5208" lon="6.32452">
        <ele>366.5</ele>
        <time>2016-02-26T12:56:24Z</time>
      </trkpt>
      <trkpt lat="43.52089" lon="6.32451">
        <ele>366.9</ele>
        <time>2016-02-26T12:56:39Z</time>
      </trkpt>
      <trkpt lat="43.52098" lon="6.32445">
        <ele>367.3</ele>
        <time>2016-02-26T12:56:49Z</time>
      </trkpt>
      <trkpt lat="43.52106" lon="6.32439">
        <ele>368.1</ele>
        <time>2016-02-26T12:57:00Z</time>
      </trkpt>
      <trkpt lat="43.52112" lon="6.32428">
        <ele>368.4</ele>
        <time>2016-02-26T12:57:10Z</time>
      </trkpt>
      <trkpt lat="43.52119" lon="6.32418">
        <ele>368.9</ele>
        <time>2016-02-26T12:57:19Z</time>
      </trkpt>
      <trkpt lat="43.52127" lon="6.32413">
        <ele>369.2</ele>
        <time>2016-02-26T12:57:26Z</time>
      </trkpt>
      <trkpt lat="43.52135" lon="6.32404">
        <ele>369.6</ele>
        <time>2016-02-26T12:57:34Z</time>
      </trkpt>
      <trkpt lat="43.52141" lon="6.32393">
        <ele>369.4</ele>
        <time>2016-02-26T12:57:44Z</time>
      </trkpt>
      <trkpt lat="43.52149" lon="6.32384">
        <ele>369.4</ele>
        <time>2016-02-26T12:57:56Z</time>
      </trkpt>
      <trkpt lat="43.52158" lon="6.32378">
        <ele>369.6</ele>
        <time>2016-02-26T12:58:05Z</time>
      </trkpt>
      <trkpt lat="43.52165" lon="6.32369">
        <ele>369.7</ele>
        <time>2016-02-26T12:58:16Z</time>
      </trkpt>
      <trkpt lat="43.52173" lon="6.32363">
        <ele>369.8</ele>
        <time>2016-02-26T12:58:25Z</time>
      </trkpt>
      <trkpt lat="43.5218" lon="6.32353">
        <ele>370.2</ele>
        <time>2016-02-26T12:58:35Z</time>
      </trkpt>
      <trkpt lat="43.52186" lon="6.32343">
        <ele>370.6</ele>
        <time>2016-02-26T12:58:49Z</time>
      </trkpt>
      <trkpt lat="43.52195" lon="6.32339">
        <ele>370.4</ele>
        <time>2016-02-26T12:58:54Z</time>
      </trkpt>
      <trkpt lat="43.52202" lon="6.32332">
        <ele>370.6</ele>
        <time>2016-02-26T12:59:04Z</time>
      </trkpt>
      <trkpt lat="43.5221" lon="6.32325">
        <ele>371.1</ele>
        <time>2016-02-26T12:59:13Z</time>
      </trkpt>
      <trkpt lat="43.52219" lon="6.3232">
        <ele>371.3</ele>
        <time>2016-02-26T12:59:22Z</time>
      </trkpt>
      <trkpt lat="43.52227" lon="6.32312">
        <ele>371.3</ele>
        <time>2016-02-26T12:59:32Z</time>
      </trkpt>
      <trkpt lat="43.52236" lon="6.32307">
        <ele>371.5</ele>
        <time>2016-02-26T12:59:39Z</time>
      </trkpt>
      <trkpt lat="43.52245" lon="6.32303">
        <ele>371.1</ele>
        <time>2016-02-26T12:59:48Z</time>
      </trkpt>
      <trkpt lat="43.52253" lon="6.32297">
        <ele>371.2</ele>
        <time>2016-02-26T12:59:59Z</time>
      </trkpt>
      <trkpt lat="43.52262" lon="6.32292">
        <ele>371.2</ele>
        <time>2016-02-26T13:00:11Z</time>
      </trkpt>
      <trkpt lat="43.52271" lon="6.32288">
        <ele>371.4</ele>
        <time>2016-02-26T13:00:21Z</time>
      </trkpt>
      <trkpt lat="43.52279" lon="6.32281">
        <ele>371.2</ele>
        <time>2016-02-26T13:00:32Z</time>
      </trkpt>
      <trkpt lat="43.52288" lon="6.32274">
        <ele>371.2</ele>
        <time>2016-02-26T13:00:41Z</time>
      </trkpt>
      <trkpt lat="43.52294" lon="6.32265">
        <ele>371.4</ele>
        <time>2016-02-26T13:00:50Z</time>
      </trkpt>
      <trkpt lat="43.52302" lon="6.32256">
        <ele>371.1</ele>
        <time>2016-02-26T13:01:00Z</time>
      </trkpt>
      <trkpt lat="43.52311" lon="6.32251">
        <ele>371.2</ele>
        <time>2016-02-26T13:01:10Z</time>
      </trkpt>
      <trkpt lat="43.52319" lon="6.32244">
        <ele>371.1</ele>
        <time>2016-02-26T13:01:18Z</time>
      </trkpt>
      <trkpt lat="43.52328" lon="6.3224">
        <ele>371.2</ele>
        <time>2016-02-26T13:02:20Z</time>
      </trkpt>
      <trkpt lat="43.52334" lon="6.3223">
        <ele>371.2</ele>
        <time>2016-02-26T13:02:42Z</time>
      </trkpt>
      <trkpt lat="43.5234" lon="6.32219">
        <ele>371.6</ele>
        <time>2016-02-26T13:02:56Z</time>
      </trkpt>
      <trkpt lat="43.52347" lon="6.32212">
        <ele>371.7</ele>
        <time>2016-02-26T13:03:07Z</time>
      </trkpt>
      <trkpt lat="43.52351" lon="6.322">
        <ele>372.2</ele>
        <time>2016-02-26T13:03:18Z</time>
      </trkpt>
      <trkpt lat="43.52355" lon="6.32188">
        <ele>372.9</ele>
        <time>2016-02-26T13:03:30Z</time>
      </trkpt>
      <trkpt lat="43.5236" lon="6.32176">
        <ele>372.9</ele>
        <time>2016-02-26T13:03:39Z</time>
      </trkpt>
      <trkpt lat="43.52364" lon="6.32164">
        <ele>372.8</ele>
        <time>2016-02-26T13:03:48Z</time>
      </trkpt>
      <trkpt lat="43.52369" lon="6.32153">
        <ele>373.2</ele>
        <time>2016-02-26T13:03:56Z</time>
      </trkpt>
      <trkpt lat="43.52374" lon="6.32142">
        <ele>373.7</ele>
        <time>2016-02-26T13:04:06Z</time>
      </trkpt>
      <trkpt lat="43.52379" lon="6.32131">
        <ele>373.9</ele>
        <time>2016-02-26T13:04:16Z</time>
      </trkpt>
      <trkpt lat="43.52385" lon="6.32122">
        <ele>374.3</ele>
        <time>2016-02-26T13:04:26Z</time>
      </trkpt>
      <trkpt lat="43.52388" lon="6.3211">
        <ele>374.5</ele>
        <time>2016-02-26T13:04:37Z</time>
      </trkpt>
      <trkpt lat="43.52393" lon="6.32098">
        <ele>375</ele>
        <time>2016-02-26T13:04:49Z</time>
      </trkpt>
      <trkpt lat="43.52399" lon="6.32088">
        <ele>375.3</ele>
        <time>2016-02-26T13:04:59Z</time>
      </trkpt>
      <trkpt lat="43.52406" lon="6.3208">
        <ele>375.5</ele>
        <time>2016-02-26T13:05:08Z</time>
      </trkpt>
      <trkpt lat="43.52411" lon="6.32069">
        <ele>375.4</ele>
        <time>2016-02-26T13:05:17Z</time>
      </trkpt>
      <trkpt lat="43.52415" lon="6.32057">
        <ele>376</ele>
        <time>2016-02-26T13:05:30Z</time>
      </trkpt>
      <trkpt lat="43.5242" lon="6.32046">
        <ele>376</ele>
        <time>2016-02-26T13:05:39Z</time>
      </trkpt>
      <trkpt lat="43.52428" lon="6.3204">
        <ele>376.3</ele>
        <time>2016-02-26T13:05:46Z</time>
      </trkpt>
      <trkpt lat="43.52436" lon="6.32031">
        <ele>376.3</ele>
        <time>2016-02-26T13:05:55Z</time>
      </trkpt>
      <trkpt lat="43.52444" lon="6.32022">
        <ele>376.2</ele>
        <time>2016-02-26T13:06:03Z</time>
      </trkpt>
      <trkpt lat="43.52449" lon="6.32011">
        <ele>375.6</ele>
        <time>2016-02-26T13:06:12Z</time>
      </trkpt>
      <trkpt lat="43.52454" lon="6.31999">
        <ele>376.2</ele>
        <time>2016-02-26T13:06:23Z</time>
      </trkpt>
      <trkpt lat="43.52461" lon="6.31991">
        <ele>376</ele>
        <time>2016-02-26T13:06:29Z</time>
      </trkpt>
      <trkpt lat="43.52466" lon="6.31979">
        <ele>376.1</ele>
        <time>2016-02-26T13:06:37Z</time>
      </trkpt>
      <trkpt lat="43.52471" lon="6.31968">
        <ele>375.6</ele>
        <time>2016-02-26T13:06:47Z</time>
      </trkpt>
      <trkpt lat="43.52477" lon="6.31956">
        <ele>375.6</ele>
        <time>2016-02-26T13:06:56Z</time>
      </trkpt>
      <trkpt lat="43.52481" lon="6.31945">
        <ele>375.8</ele>
        <time>2016-02-26T13:07:04Z</time>
      </trkpt>
      <trkpt lat="43.52486" lon="6.31934">
        <ele>376</ele>
        <time>2016-02-26T13:07:14Z</time>
      </trkpt>
      <trkpt lat="43.52492" lon="6.31924">
        <ele>376.1</ele>
        <time>2016-02-26T13:07:22Z</time>
      </trkpt>
      <trkpt lat="43.52499" lon="6.31915">
        <ele>376.5</ele>
        <time>2016-02-26T13:07:31Z</time>
      </trkpt>
      <trkpt lat="43.52502" lon="6.31902">
        <ele>376.4</ele>
        <time>2016-02-26T13:07:39Z</time>
      </trkpt>
      <trkpt lat="43.52507" lon="6.31892">
        <ele>376.5</ele>
        <time>2016-02-26T13:07:49Z</time>
      </trkpt>
      <trkpt lat="43.52512" lon="6.31881">
        <ele>376.1</ele>
        <time>2016-02-26T13:07:59Z</time>
      </trkpt>
      <trkpt lat="43.52518" lon="6.3187">
        <ele>375.9</ele>
        <time>2016-02-26T13:08:09Z</time>
      </trkpt>
      <trkpt lat="43.52524" lon="6.3186">
        <ele>375.7</ele>
        <time>2016-02-26T13:08:18Z</time>
      </trkpt>
      <trkpt lat="43.52528" lon="6.31848">
        <ele>375.5</ele>
        <time>2016-02-26T13:08:28Z</time>
      </trkpt>
      <trkpt lat="43.52534" lon="6.31836">
        <ele>375.3</ele>
        <time>2016-02-26T13:08:38Z</time>
      </trkpt>
      <trkpt lat="43.52539" lon="6.31825">
        <ele>375.1</ele>
        <time>2016-02-26T13:08:47Z</time>
      </trkpt>
      <trkpt lat="43.52542" lon="6.31812">
        <ele>374.7</ele>
        <time>2016-02-26T13:08:56Z</time>
      </trkpt>
      <trkpt lat="43.5255" lon="6.31804">
        <ele>374.2</ele>
        <time>2016-02-26T13:09:03Z</time>
      </trkpt>
      <trkpt lat="43.52552" lon="6.31791">
        <ele>374.3</ele>
        <time>2016-02-26T13:09:13Z</time>
      </trkpt>
      <trkpt lat="43.52558" lon="6.3178">
        <ele>373.7</ele>
        <time>2016-02-26T13:09:23Z</time>
      </trkpt>
      <trkpt lat="43.52562" lon="6.31767">
        <ele>373.4</ele>
        <time>2016-02-26T13:09:32Z</time>
      </trkpt>
      <trkpt lat="43.52566" lon="6.31754">
        <ele>373.3</ele>
        <time>2016-02-26T13:09:46Z</time>
      </trkpt>
      <trkpt lat="43.52573" lon="6.31745">
        <ele>372.5</ele>
        <time>2016-02-26T13:09:59Z</time>
      </trkpt>
      <trkpt lat="43.52581" lon="6.31737">
        <ele>372.5</ele>
        <time>2016-02-26T13:10:08Z</time>
      </trkpt>
      <trkpt lat="43.52586" lon="6.31727">
        <ele>372.1</ele>
        <time>2016-02-26T13:10:17Z</time>
      </trkpt>
      <trkpt lat="43.52591" lon="6.31715">
        <ele>371.7</ele>
        <time>2016-02-26T13:10:27Z</time>
      </trkpt>
      <trkpt lat="43.52594" lon="6.31703">
        <ele>371.5</ele>
        <time>2016-02-26T13:10:37Z</time>
      </trkpt>
      <trkpt lat="43.52602" lon="6.31692">
        <ele>371.3</ele>
        <time>2016-02-26T13:10:46Z</time>
      </trkpt>
      <trkpt lat="43.52605" lon="6.3168">
        <ele>370.8</ele>
        <time>2016-02-26T13:10:55Z</time>
      </trkpt>
      <trkpt lat="43.52612" lon="6.31669">
        <ele>370.5</ele>
        <time>2016-02-26T13:11:04Z</time>
      </trkpt>
      <trkpt lat="43.52619" lon="6.3166">
        <ele>370.3</ele>
        <time>2016-02-26T13:11:12Z</time>
      </trkpt>
      <trkpt lat="43.52622" lon="6.31648">
        <ele>370.4</ele>
        <time>2016-02-26T13:11:23Z</time>
      </trkpt>
      <trkpt lat="43.52628" lon="6.31637">
        <ele>370.4</ele>
        <time>2016-02-26T13:11:32Z</time>
      </trkpt>
      <trkpt lat="43.52633" lon="6.31627">
        <ele>370.2</ele>
        <time>2016-02-26T13:11:42Z</time>
      </trkpt>
      <trkpt lat="43.52639" lon="6.31615">
        <ele>370.2</ele>
        <time>2016-02-26T13:11:53Z</time>
      </trkpt>
      <trkpt lat="43.52642" lon="6.31603">
        <ele>370.3</ele>
        <time>2016-02-26T13:12:03Z</time>
      </trkpt>
      <trkpt lat="43.52646" lon="6.3159">
        <ele>370.1</ele>
        <time>2016-02-26T13:12:12Z</time>
      </trkpt>
      <trkpt lat="43.52645" lon="6.31578">
        <ele>370.4</ele>
        <time>2016-02-26T13:12:21Z</time>
      </trkpt>
      <trkpt lat="43.52649" lon="6.31565">
        <ele>370</ele>
        <time>2016-02-26T13:12:30Z</time>
      </trkpt>
      <trkpt lat="43.52654" lon="6.31555">
        <ele>370.3</ele>
        <time>2016-02-26T13:12:39Z</time>
      </trkpt>
      <trkpt lat="43.52658" lon="6.31542">
        <ele>370.8</ele>
        <time>2016-02-26T13:12:48Z</time>
      </trkpt>
      <trkpt lat="43.5266" lon="6.3153">
        <ele>370.4</ele>
        <time>2016-02-26T13:12:58Z</time>
      </trkpt>
      <trkpt lat="43.52665" lon="6.31519">
        <ele>370.7</ele>
        <time>2016-02-26T13:13:07Z</time>
      </trkpt>
      <trkpt lat="43.52666" lon="6.31506">
        <ele>370.5</ele>
        <time>2016-02-26T13:13:16Z</time>
      </trkpt>
      <trkpt lat="43.5267" lon="6.31493">
        <ele>370.6</ele>
        <time>2016-02-26T13:13:26Z</time>
      </trkpt>
      <trkpt lat="43.52675" lon="6.31482">
        <ele>370.7</ele>
        <time>2016-02-26T13:13:34Z</time>
      </trkpt>
      <trkpt lat="43.52682" lon="6.31475">
        <ele>370.6</ele>
        <time>2016-02-26T13:13:41Z</time>
      </trkpt>
      <trkpt lat="43.52686" lon="6.31463">
        <ele>370.9</ele>
        <time>2016-02-26T13:13:49Z</time>
      </trkpt>
      <trkpt lat="43.5269" lon="6.31451">
        <ele>371.3</ele>
        <time>2016-02-26T13:14:00Z</time>
      </trkpt>
      <trkpt lat="43.52694" lon="6.3144">
        <ele>371.3</ele>
        <time>2016-02-26T13:14:09Z</time>
      </trkpt>
      <trkpt lat="43.52697" lon="6.31427">
        <ele>371.5</ele>
        <time>2016-02-26T13:14:18Z</time>
      </trkpt>
      <trkpt lat="43.52699" lon="6.31414">
        <ele>372.1</ele>
        <time>2016-02-26T13:14:29Z</time>
      </trkpt>
      <trkpt lat="43.52697" lon="6.31402">
        <ele>372.5</ele>
        <time>2016-02-26T13:14:43Z</time>
      </trkpt>
      <trkpt lat="43.52706" lon="6.31394">
        <ele>372.3</ele>
        <time>2016-02-26T13:14:59Z</time>
      </trkpt>
      <trkpt lat="43.52712" lon="6.31384">
        <ele>372.6</ele>
        <time>2016-02-26T13:15:06Z</time>
      </trkpt>
      <trkpt lat="43.52716" lon="6.31373">
        <ele>373</ele>
        <time>2016-02-26T13:15:15Z</time>
      </trkpt>
      <trkpt lat="43.5272" lon="6.3136">
        <ele>373.4</ele>
        <time>2016-02-26T13:15:26Z</time>
      </trkpt>
      <trkpt lat="43.52721" lon="6.31346">
        <ele>373.8</ele>
        <time>2016-02-26T13:15:39Z</time>
      </trkpt>
      <trkpt lat="43.52725" lon="6.31334">
        <ele>373.9</ele>
        <time>2016-02-26T13:15:49Z</time>
      </trkpt>
      <trkpt lat="43.52729" lon="6.31322">
        <ele>374.3</ele>
        <time>2016-02-26T13:15:58Z</time>
      </trkpt>
      <trkpt lat="43.52732" lon="6.31309">
        <ele>374.5</ele>
        <time>2016-02-26T13:16:07Z</time>
      </trkpt>
      <trkpt lat="43.52736" lon="6.31297">
        <ele>375</ele>
        <time>2016-02-26T13:16:19Z</time>
      </trkpt>
      <trkpt lat="43.5274" lon="6.31286">
        <ele>375.6</ele>
        <time>2016-02-26T13:16:26Z</time>
      </trkpt>
      <trkpt lat="43.52744" lon="6.31274">
        <ele>375.6</ele>
        <time>2016-02-26T13:16:35Z</time>
      </trkpt>
      <trkpt lat="43.52746" lon="6.31262">
        <ele>375.5</ele>
        <time>2016-02-26T13:17:18Z</time>
      </trkpt>
      <trkpt lat="43.52749" lon="6.31249">
        <ele>375.8</ele>
        <time>2016-02-26T13:17:30Z</time>
      </trkpt>
      <trkpt lat="43.52752" lon="6.31237">
        <ele>376</ele>
        <time>2016-02-26T13:17:42Z</time>
      </trkpt>
      <trkpt lat="43.52756" lon="6.31225">
        <ele>376.9</ele>
        <time>2016-02-26T13:18:04Z</time>
      </trkpt>
      <trkpt lat="43.52759" lon="6.31213">
        <ele>377.5</ele>
        <time>2016-02-26T13:18:56Z</time>
      </trkpt>
      <trkpt lat="43.52763" lon="6.31202">
        <ele>377.9</ele>
        <time>2016-02-26T13:19:06Z</time>
      </trkpt>
      <trkpt lat="43.52766" lon="6.31189">
        <ele>378.3</ele>
        <time>2016-02-26T13:19:23Z</time>
      </trkpt>
      <trkpt lat="43.52772" lon="6.31179">
        <ele>379.2</ele>
        <time>2016-02-26T13:19:36Z</time>
      </trkpt>
      <trkpt lat="43.52764" lon="6.31174">
        <ele>379.5</ele>
        <time>2016-02-26T13:21:43Z</time>
      </trkpt>
      <trkpt lat="43.52769" lon="6.31163">
        <ele>379.8</ele>
        <time>2016-02-26T13:21:56Z</time>
      </trkpt>
      <trkpt lat="43.52774" lon="6.31153">
        <ele>380.2</ele>
        <time>2016-02-26T13:22:05Z</time>
      </trkpt>
      <trkpt lat="43.52779" lon="6.31142">
        <ele>380.7</ele>
        <time>2016-02-26T13:22:14Z</time>
      </trkpt>
      <trkpt lat="43.52782" lon="6.3113">
        <ele>381.4</ele>
        <time>2016-02-26T13:22:27Z</time>
      </trkpt>
      <trkpt lat="43.5279" lon="6.31123">
        <ele>382.2</ele>
        <time>2016-02-26T13:23:50Z</time>
      </trkpt>
      <trkpt lat="43.52794" lon="6.31111">
        <ele>382.4</ele>
        <time>2016-02-26T13:23:59Z</time>
      </trkpt>
      <trkpt lat="43.52796" lon="6.31099">
        <ele>382.9</ele>
        <time>2016-02-26T13:24:11Z</time>
      </trkpt>
      <trkpt lat="43.528" lon="6.31088">
        <ele>383.3</ele>
        <time>2016-02-26T13:24:19Z</time>
      </trkpt>
      <trkpt lat="43.528" lon="6.31075">
        <ele>383.8</ele>
        <time>2016-02-26T13:24:33Z</time>
      </trkpt>
      <trkpt lat="43.52797" lon="6.31064">
        <ele>384.1</ele>
        <time>2016-02-26T13:24:43Z</time>
      </trkpt>
      <trkpt lat="43.52792" lon="6.31053">
        <ele>384.5</ele>
        <time>2016-02-26T13:24:56Z</time>
      </trkpt>
      <trkpt lat="43.52801" lon="6.31057">
        <ele>384.2</ele>
        <time>2016-02-26T13:26:28Z</time>
      </trkpt>
      <trkpt lat="43.52792" lon="6.31058">
        <ele>384.2</ele>
        <time>2016-02-26T13:26:47Z</time>
      </trkpt>
      <trkpt lat="43.52796" lon="6.31046">
        <ele>384.1</ele>
        <time>2016-02-26T13:27:30Z</time>
      </trkpt>
      <trkpt lat="43.52803" lon="6.31038">
        <ele>384.5</ele>
        <time>2016-02-26T13:27:40Z</time>
      </trkpt>
      <trkpt lat="43.52809" lon="6.31027">
        <ele>384.7</ele>
        <time>2016-02-26T13:27:52Z</time>
      </trkpt>
      <trkpt lat="43.5281" lon="6.31014">
        <ele>384.9</ele>
        <time>2016-02-26T13:28:04Z</time>
      </trkpt>
      <trkpt lat="43.52813" lon="6.31001">
        <ele>385</ele>
        <time>2016-02-26T13:28:21Z</time>
      </trkpt>
      <trkpt lat="43.52813" lon="6.30988">
        <ele>384.9</ele>
        <time>2016-02-26T13:28:31Z</time>
      </trkpt>
      <trkpt lat="43.52812" lon="6.30975">
        <ele>384.8</ele>
        <time>2016-02-26T13:28:41Z</time>
      </trkpt>
      <trkpt lat="43.52812" lon="6.30962">
        <ele>384.9</ele>
        <time>2016-02-26T13:28:50Z</time>
      </trkpt>
      <trkpt lat="43.52815" lon="6.3095">
        <ele>384.8</ele>
        <time>2016-02-26T13:29:02Z</time>
      </trkpt>
      <trkpt lat="43.52819" lon="6.30939">
        <ele>384.9</ele>
        <time>2016-02-26T13:29:23Z</time>
      </trkpt>
      <trkpt lat="43.52821" lon="6.30926">
        <ele>384.9</ele>
        <time>2016-02-26T13:29:35Z</time>
      </trkpt>
      <trkpt lat="43.52824" lon="6.30914">
        <ele>385</ele>
        <time>2016-02-26T13:29:46Z</time>
      </trkpt>
      <trkpt lat="43.52823" lon="6.309">
        <ele>385</ele>
        <time>2016-02-26T13:30:04Z</time>
      </trkpt>
      <trkpt lat="43.52824" lon="6.30886">
        <ele>385.1</ele>
        <time>2016-02-26T13:30:14Z</time>
      </trkpt>
      <trkpt lat="43.52825" lon="6.30873">
        <ele>385.6</ele>
        <time>2016-02-26T13:30:23Z</time>
      </trkpt>
      <trkpt lat="43.52823" lon="6.30858">
        <ele>385.3</ele>
        <time>2016-02-26T13:30:32Z</time>
      </trkpt>
      <trkpt lat="43.52824" lon="6.30846">
        <ele>385.2</ele>
        <time>2016-02-26T13:30:41Z</time>
      </trkpt>
      <trkpt lat="43.52829" lon="6.30835">
        <ele>385</ele>
        <time>2016-02-26T13:30:50Z</time>
      </trkpt>
      <trkpt lat="43.52834" lon="6.30825">
        <ele>385</ele>
        <time>2016-02-26T13:30:58Z</time>
      </trkpt>
      <trkpt lat="43.52834" lon="6.30812">
        <ele>384.8</ele>
        <time>2016-02-26T13:31:18Z</time>
      </trkpt>
      <trkpt lat="43.52836" lon="6.30798">
        <ele>384.7</ele>
        <time>2016-02-26T13:31:27Z</time>
      </trkpt>
      <trkpt lat="43.52835" lon="6.30784">
        <ele>384.5</ele>
        <time>2016-02-26T13:31:36Z</time>
      </trkpt>
      <trkpt lat="43.52833" lon="6.30772">
        <ele>384.2</ele>
        <time>2016-02-26T13:31:49Z</time>
      </trkpt>
      <trkpt lat="43.52833" lon="6.30759">
        <ele>383.9</ele>
        <time>2016-02-26T13:31:58Z</time>
      </trkpt>
      <trkpt lat="43.52838" lon="6.30747">
        <ele>383.9</ele>
        <time>2016-02-26T13:32:07Z</time>
      </trkpt>
      <trkpt lat="43.52844" lon="6.30737">
        <ele>383.8</ele>
        <time>2016-02-26T13:32:21Z</time>
      </trkpt>
      <trkpt lat="43.52844" lon="6.30724">
        <ele>383.9</ele>
        <time>2016-02-26T13:32:34Z</time>
      </trkpt>
      <trkpt lat="43.52845" lon="6.30711">
        <ele>383.6</ele>
        <time>2016-02-26T13:32:42Z</time>
      </trkpt>
      <trkpt lat="43.52847" lon="6.30699">
        <ele>383.7</ele>
        <time>2016-02-26T13:32:49Z</time>
      </trkpt>
      <trkpt lat="43.5285" lon="6.30687">
        <ele>383.9</ele>
        <time>2016-02-26T13:33:04Z</time>
      </trkpt>
      <trkpt lat="43.52853" lon="6.30674">
        <ele>383.6</ele>
        <time>2016-02-26T13:33:13Z</time>
      </trkpt>
      <trkpt lat="43.52858" lon="6.30662">
        <ele>383.1</ele>
        <time>2016-02-26T13:33:20Z</time>
      </trkpt>
      <trkpt lat="43.52861" lon="6.30649">
        <ele>382.3</ele>
        <time>2016-02-26T13:33:27Z</time>
      </trkpt>
      <trkpt lat="43.52865" lon="6.30638">
        <ele>381.9</ele>
        <time>2016-02-26T13:33:34Z</time>
      </trkpt>
      <trkpt lat="43.52867" lon="6.30625">
        <ele>381.5</ele>
        <time>2016-02-26T13:33:41Z</time>
      </trkpt>
      <trkpt lat="43.52875" lon="6.30617">
        <ele>380.8</ele>
        <time>2016-02-26T13:33:52Z</time>
      </trkpt>
      <trkpt lat="43.52881" lon="6.30607">
        <ele>380.6</ele>
        <time>2016-02-26T13:33:59Z</time>
      </trkpt>
      <trkpt lat="43.52888" lon="6.30599">
        <ele>380.1</ele>
        <time>2016-02-26T13:34:08Z</time>
      </trkpt>
      <trkpt lat="43.52896" lon="6.3059">
        <ele>380</ele>
        <time>2016-02-26T13:34:18Z</time>
      </trkpt>
      <trkpt lat="43.52903" lon="6.30582">
        <ele>379.6</ele>
        <time>2016-02-26T13:34:26Z</time>
      </trkpt>
      <trkpt lat="43.5291" lon="6.30575">
        <ele>378.9</ele>
        <time>2016-02-26T13:34:33Z</time>
      </trkpt>
      <trkpt lat="43.52917" lon="6.30566">
        <ele>378.7</ele>
        <time>2016-02-26T13:34:40Z</time>
      </trkpt>
      <trkpt lat="43.52925" lon="6.30559">
        <ele>378.1</ele>
        <time>2016-02-26T13:34:49Z</time>
      </trkpt>
      <trkpt lat="43.52931" lon="6.30549">
        <ele>377.6</ele>
        <time>2016-02-26T13:34:58Z</time>
      </trkpt>
      <trkpt lat="43.52937" lon="6.30538">
        <ele>377</ele>
        <time>2016-02-26T13:35:08Z</time>
      </trkpt>
      <trkpt lat="43.52942" lon="6.30526">
        <ele>376.2</ele>
        <time>2016-02-26T13:35:18Z</time>
      </trkpt>
      <trkpt lat="43.52944" lon="6.30514">
        <ele>375.8</ele>
        <time>2016-02-26T13:35:25Z</time>
      </trkpt>
      <trkpt lat="43.52948" lon="6.30502">
        <ele>375.3</ele>
        <time>2016-02-26T13:35:34Z</time>
      </trkpt>
      <trkpt lat="43.52952" lon="6.30491">
        <ele>374.5</ele>
        <time>2016-02-26T13:35:55Z</time>
      </trkpt>
      <trkpt lat="43.52953" lon="6.30477">
        <ele>374.2</ele>
        <time>2016-02-26T13:36:54Z</time>
      </trkpt>
      <trkpt lat="43.52957" lon="6.30466">
        <ele>373.9</ele>
        <time>2016-02-26T13:37:07Z</time>
      </trkpt>
      <trkpt lat="43.52961" lon="6.30455">
        <ele>372.6</ele>
        <time>2016-02-26T13:37:22Z</time>
      </trkpt>
      <trkpt lat="43.52969" lon="6.30446">
        <ele>371.9</ele>
        <time>2016-02-26T13:37:33Z</time>
      </trkpt>
      <trkpt lat="43.52978" lon="6.30443">
        <ele>371.2</ele>
        <time>2016-02-26T13:37:50Z</time>
      </trkpt>
      <trkpt lat="43.52987" lon="6.30444">
        <ele>370.8</ele>
        <time>2016-02-26T13:38:58Z</time>
      </trkpt>
      <trkpt lat="43.52997" lon="6.30448">
        <ele>369.7</ele>
        <time>2016-02-26T13:39:13Z</time>
      </trkpt>
      <trkpt lat="43.53004" lon="6.30439">
        <ele>368.6</ele>
        <time>2016-02-26T13:39:34Z</time>
      </trkpt>
      <trkpt lat="43.53007" lon="6.30427">
        <ele>368.5</ele>
        <time>2016-02-26T13:40:07Z</time>
      </trkpt>
      <trkpt lat="43.53011" lon="6.30416">
        <ele>367.6</ele>
        <time>2016-02-26T13:40:17Z</time>
      </trkpt>
      <trkpt lat="43.53012" lon="6.30403">
        <ele>366.6</ele>
        <time>2016-02-26T13:40:27Z</time>
      </trkpt>
      <trkpt lat="43.53011" lon="6.3039">
        <ele>366.1</ele>
        <time>2016-02-26T13:40:35Z</time>
      </trkpt>
      <trkpt lat="43.53009" lon="6.30376">
        <ele>365.5</ele>
        <time>2016-02-26T13:40:44Z</time>
      </trkpt>
      <trkpt lat="43.53011" lon="6.30364">
        <ele>365.3</ele>
        <time>2016-02-26T13:40:53Z</time>
      </trkpt>
      <trkpt lat="43.53015" lon="6.30352">
        <ele>364.5</ele>
        <time>2016-02-26T13:41:02Z</time>
      </trkpt>
      <trkpt lat="43.53019" lon="6.3034">
        <ele>363.6</ele>
        <time>2016-02-26T13:41:11Z</time>
      </trkpt>
      <trkpt lat="43.53024" lon="6.30328">
        <ele>362.5</ele>
        <time>2016-02-26T13:41:19Z</time>
      </trkpt>
      <trkpt lat="43.53028" lon="6.30317">
        <ele>361.6</ele>
        <time>2016-02-26T13:41:28Z</time>
      </trkpt>
      <trkpt lat="43.53031" lon="6.30304">
        <ele>360.3</ele>
        <time>2016-02-26T13:41:38Z</time>
      </trkpt>
      <trkpt lat="43.53034" lon="6.30292">
        <ele>359.4</ele>
        <time>2016-02-26T13:41:46Z</time>
      </trkpt>
      <trkpt lat="43.53038" lon="6.3028">
        <ele>358.1</ele>
        <time>2016-02-26T13:41:56Z</time>
      </trkpt>
      <trkpt lat="43.53036" lon="6.30267">
        <ele>357.2</ele>
        <time>2016-02-26T13:42:06Z</time>
      </trkpt>
      <trkpt lat="43.53037" lon="6.30255">
        <ele>356.2</ele>
        <time>2016-02-26T13:42:19Z</time>
      </trkpt>
      <trkpt lat="43.53046" lon="6.30249">
        <ele>355.3</ele>
        <time>2016-02-26T13:42:32Z</time>
      </trkpt>
      <trkpt lat="43.53055" lon="6.3025">
        <ele>354.6</ele>
        <time>2016-02-26T13:42:46Z</time>
      </trkpt>
      <trkpt lat="43.53065" lon="6.3025">
        <ele>354.1</ele>
        <time>2016-02-26T13:42:54Z</time>
      </trkpt>
      <trkpt lat="43.53075" lon="6.30254">
        <ele>353.3</ele>
        <time>2016-02-26T13:43:03Z</time>
      </trkpt>
      <trkpt lat="43.53084" lon="6.30257">
        <ele>352.4</ele>
        <time>2016-02-26T13:43:16Z</time>
      </trkpt>
      <trkpt lat="43.53093" lon="6.30262">
        <ele>351.1</ele>
        <time>2016-02-26T13:43:31Z</time>
      </trkpt>
      <trkpt lat="43.53102" lon="6.30265">
        <ele>350.2</ele>
        <time>2016-02-26T13:43:49Z</time>
      </trkpt>
      <trkpt lat="43.5311" lon="6.30271">
        <ele>349.4</ele>
        <time>2016-02-26T13:44:27Z</time>
      </trkpt>
      <trkpt lat="43.53103" lon="6.30263">
        <ele>349.9</ele>
        <time>2016-02-26T13:46:05Z</time>
      </trkpt>
      <trkpt lat="43.53094" lon="6.30257">
        <ele>351</ele>
        <time>2016-02-26T13:46:18Z</time>
      </trkpt>
      <trkpt lat="43.53086" lon="6.30252">
        <ele>352.2</ele>
        <time>2016-02-26T13:46:30Z</time>
      </trkpt>
      <trkpt lat="43.53077" lon="6.30247">
        <ele>352.9</ele>
        <time>2016-02-26T13:46:40Z</time>
      </trkpt>
      <trkpt lat="43.53068" lon="6.30246">
        <ele>353.7</ele>
        <time>2016-02-26T13:46:49Z</time>
      </trkpt>
      <trkpt lat="43.53058" lon="6.30245">
        <ele>354.3</ele>
        <time>2016-02-26T13:46:58Z</time>
      </trkpt>
      <trkpt lat="43.53049" lon="6.30245">
        <ele>354.9</ele>
        <time>2016-02-26T13:47:07Z</time>
      </trkpt>
      <trkpt lat="43.53039" lon="6.3025">
        <ele>355.4</ele>
        <time>2016-02-26T13:47:20Z</time>
      </trkpt>
      <trkpt lat="43.53031" lon="6.30257">
        <ele>355.9</ele>
        <time>2016-02-26T13:47:26Z</time>
      </trkpt>
      <trkpt lat="43.53022" lon="6.30253">
        <ele>355.5</ele>
        <time>2016-02-26T13:47:38Z</time>
      </trkpt>
      <trkpt lat="43.53014" lon="6.30248">
        <ele>354.2</ele>
        <time>2016-02-26T13:47:47Z</time>
      </trkpt>
      <trkpt lat="43.53004" lon="6.30247">
        <ele>352.9</ele>
        <time>2016-02-26T13:48:10Z</time>
      </trkpt>
      <trkpt lat="43.52994" lon="6.30251">
        <ele>352.5</ele>
        <time>2016-02-26T13:48:19Z</time>
      </trkpt>
      <trkpt lat="43.52985" lon="6.30254">
        <ele>352</ele>
        <time>2016-02-26T13:48:30Z</time>
      </trkpt>
      <trkpt lat="43.52975" lon="6.30255">
        <ele>352</ele>
        <time>2016-02-26T13:48:40Z</time>
      </trkpt>
      <trkpt lat="43.52966" lon="6.30255">
        <ele>352</ele>
        <time>2016-02-26T13:48:49Z</time>
      </trkpt>
      <trkpt lat="43.52956" lon="6.30256">
        <ele>352</ele>
        <time>2016-02-26T13:48:58Z</time>
      </trkpt>
      <trkpt lat="43.52947" lon="6.30251">
        <ele>351.9</ele>
        <time>2016-02-26T13:49:08Z</time>
      </trkpt>
      <trkpt lat="43.52941" lon="6.3024">
        <ele>352.2</ele>
        <time>2016-02-26T13:49:19Z</time>
      </trkpt>
      <trkpt lat="43.52938" lon="6.30228">
        <ele>352.5</ele>
        <time>2016-02-26T13:49:28Z</time>
      </trkpt>
      <trkpt lat="43.52936" lon="6.30215">
        <ele>352.5</ele>
        <time>2016-02-26T13:49:38Z</time>
      </trkpt>
      <trkpt lat="43.52936" lon="6.30202">
        <ele>351.6</ele>
        <time>2016-02-26T13:49:49Z</time>
      </trkpt>
      <trkpt lat="43.52933" lon="6.30189">
        <ele>350.9</ele>
        <time>2016-02-26T13:49:58Z</time>
      </trkpt>
      <trkpt lat="43.5293" lon="6.30177">
        <ele>349.8</ele>
        <time>2016-02-26T13:50:10Z</time>
      </trkpt>
      <trkpt lat="43.52924" lon="6.30168">
        <ele>349.1</ele>
        <time>2016-02-26T13:50:22Z</time>
      </trkpt>
      <trkpt lat="43.52917" lon="6.30161">
        <ele>348</ele>
        <time>2016-02-26T13:50:37Z</time>
      </trkpt>
      <trkpt lat="43.52909" lon="6.30154">
        <ele>347.5</ele>
        <time>2016-02-26T13:50:47Z</time>
      </trkpt>
      <trkpt lat="43.529" lon="6.30149">
        <ele>347</ele>
        <time>2016-02-26T13:50:58Z</time>
      </trkpt>
      <trkpt lat="43.52892" lon="6.30142">
        <ele>346</ele>
        <time>2016-02-26T13:51:10Z</time>
      </trkpt>
      <trkpt lat="43.52884" lon="6.30135">
        <ele>345.7</ele>
        <time>2016-02-26T13:51:19Z</time>
      </trkpt>
      <trkpt lat="43.52875" lon="6.30131">
        <ele>344.7</ele>
        <time>2016-02-26T13:51:32Z</time>
      </trkpt>
      <trkpt lat="43.52866" lon="6.30127">
        <ele>343.7</ele>
        <time>2016-02-26T13:51:43Z</time>
      </trkpt>
      <trkpt lat="43.52857" lon="6.30121">
        <ele>342.9</ele>
        <time>2016-02-26T13:51:52Z</time>
      </trkpt>
      <trkpt lat="43.52849" lon="6.30115">
        <ele>342.2</ele>
        <time>2016-02-26T13:52:02Z</time>
      </trkpt>
      <trkpt lat="43.52841" lon="6.30109">
        <ele>341.9</ele>
        <time>2016-02-26T13:52:13Z</time>
      </trkpt>
      <trkpt lat="43.52832" lon="6.30105">
        <ele>341.2</ele>
        <time>2016-02-26T13:52:23Z</time>
      </trkpt>
      <trkpt lat="43.52822" lon="6.30105">
        <ele>339.7</ele>
        <time>2016-02-26T13:52:36Z</time>
      </trkpt>
      <trkpt lat="43.52813" lon="6.30105">
        <ele>338.7</ele>
        <time>2016-02-26T13:52:48Z</time>
      </trkpt>
      <trkpt lat="43.52805" lon="6.30099">
        <ele>337.7</ele>
        <time>2016-02-26T13:53:20Z</time>
      </trkpt>
      <trkpt lat="43.52796" lon="6.30097">
        <ele>336.9</ele>
        <time>2016-02-26T13:54:31Z</time>
      </trkpt>
      <trkpt lat="43.52789" lon="6.30088">
        <ele>336.7</ele>
        <time>2016-02-26T13:54:44Z</time>
      </trkpt>
      <trkpt lat="43.52785" lon="6.30077">
        <ele>336.9</ele>
        <time>2016-02-26T13:54:56Z</time>
      </trkpt>
      <trkpt lat="43.52781" lon="6.30066">
        <ele>337</ele>
        <time>2016-02-26T13:55:07Z</time>
      </trkpt>
      <trkpt lat="43.52779" lon="6.30054">
        <ele>336.3</ele>
        <time>2016-02-26T13:55:23Z</time>
      </trkpt>
      <trkpt lat="43.52773" lon="6.30044">
        <ele>336.1</ele>
        <time>2016-02-26T13:56:15Z</time>
      </trkpt>
      <trkpt lat="43.52768" lon="6.30033">
        <ele>335.4</ele>
        <time>2016-02-26T13:56:27Z</time>
      </trkpt>
      <trkpt lat="43.5276" lon="6.30026">
        <ele>334.7</ele>
        <time>2016-02-26T13:56:40Z</time>
      </trkpt>
      <trkpt lat="43.52751" lon="6.3002">
        <ele>333.7</ele>
        <time>2016-02-26T13:56:51Z</time>
      </trkpt>
      <trkpt lat="43.52741" lon="6.30017">
        <ele>333.6</ele>
        <time>2016-02-26T13:57:03Z</time>
      </trkpt>
      <trkpt lat="43.52732" lon="6.30013">
        <ele>333.1</ele>
        <time>2016-02-26T13:57:13Z</time>
      </trkpt>
      <trkpt lat="43.52724" lon="6.30009">
        <ele>333</ele>
        <time>2016-02-26T13:57:23Z</time>
      </trkpt>
      <trkpt lat="43.52715" lon="6.30003">
        <ele>332.5</ele>
        <time>2016-02-26T13:57:33Z</time>
      </trkpt>
      <trkpt lat="43.52707" lon="6.29999">
        <ele>332</ele>
        <time>2016-02-26T13:57:42Z</time>
      </trkpt>
      <trkpt lat="43.52698" lon="6.29993">
        <ele>331.3</ele>
        <time>2016-02-26T13:57:51Z</time>
      </trkpt>
      <trkpt lat="43.5269" lon="6.29987">
        <ele>330.5</ele>
        <time>2016-02-26T13:58:01Z</time>
      </trkpt>
      <trkpt lat="43.52681" lon="6.29984">
        <ele>329.7</ele>
        <time>2016-02-26T13:58:11Z</time>
      </trkpt>
      <trkpt lat="43.52672" lon="6.2998">
        <ele>329.1</ele>
        <time>2016-02-26T13:58:21Z</time>
      </trkpt>
      <trkpt lat="43.52664" lon="6.29974">
        <ele>328.3</ele>
        <time>2016-02-26T13:58:43Z</time>
      </trkpt>
      <trkpt lat="43.52655" lon="6.29975">
        <ele>327</ele>
        <time>2016-02-26T14:00:22Z</time>
      </trkpt>
      <trkpt lat="43.52645" lon="6.29974">
        <ele>325.8</ele>
        <time>2016-02-26T14:01:21Z</time>
      </trkpt>
      <trkpt lat="43.52636" lon="6.29973">
        <ele>324.6</ele>
        <time>2016-02-26T14:01:36Z</time>
      </trkpt>
      <trkpt lat="43.52626" lon="6.29972">
        <ele>323.7</ele>
        <time>2016-02-26T14:01:47Z</time>
      </trkpt>
      <trkpt lat="43.52617" lon="6.2997">
        <ele>322.8</ele>
        <time>2016-02-26T14:02:00Z</time>
      </trkpt>
      <trkpt lat="43.52607" lon="6.29969">
        <ele>321.7</ele>
        <time>2016-02-26T14:02:14Z</time>
      </trkpt>
      <trkpt lat="43.52598" lon="6.29965">
        <ele>320.5</ele>
        <time>2016-02-26T14:02:28Z</time>
      </trkpt>
      <trkpt lat="43.52588" lon="6.29963">
        <ele>319.5</ele>
        <time>2016-02-26T14:02:42Z</time>
      </trkpt>
      <trkpt lat="43.52579" lon="6.29961">
        <ele>318.2</ele>
        <time>2016-02-26T14:02:53Z</time>
      </trkpt>
      <trkpt lat="43.5257" lon="6.29966">
        <ele>317.8</ele>
        <time>2016-02-26T14:03:05Z</time>
      </trkpt>
      <trkpt lat="43.52561" lon="6.29971">
        <ele>318.1</ele>
        <time>2016-02-26T14:03:14Z</time>
      </trkpt>
      <trkpt lat="43.52552" lon="6.29976">
        <ele>318.2</ele>
        <time>2016-02-26T14:03:22Z</time>
      </trkpt>
      <trkpt lat="43.52545" lon="6.29984">
        <ele>318.1</ele>
        <time>2016-02-26T14:03:35Z</time>
      </trkpt>
      <trkpt lat="43.52541" lon="6.29995">
        <ele>317.2</ele>
        <time>2016-02-26T14:04:25Z</time>
      </trkpt>
      <trkpt lat="43.52533" lon="6.30003">
        <ele>317.3</ele>
        <time>2016-02-26T14:04:38Z</time>
      </trkpt>
      <trkpt lat="43.52527" lon="6.30012">
        <ele>317.5</ele>
        <time>2016-02-26T14:04:49Z</time>
      </trkpt>
      <trkpt lat="43.52519" lon="6.30019">
        <ele>317.5</ele>
        <time>2016-02-26T14:04:58Z</time>
      </trkpt>
      <trkpt lat="43.52514" lon="6.3003">
        <ele>318</ele>
        <time>2016-02-26T14:05:08Z</time>
      </trkpt>
      <trkpt lat="43.52513" lon="6.30042">
        <ele>318.8</ele>
        <time>2016-02-26T14:05:19Z</time>
      </trkpt>
      <trkpt lat="43.52512" lon="6.30054">
        <ele>319.7</ele>
        <time>2016-02-26T14:05:28Z</time>
      </trkpt>
      <trkpt lat="43.52512" lon="6.30067">
        <ele>320.6</ele>
        <time>2016-02-26T14:05:39Z</time>
      </trkpt>
      <trkpt lat="43.52517" lon="6.30079">
        <ele>321.7</ele>
        <time>2016-02-26T14:05:52Z</time>
      </trkpt>
      <trkpt lat="43.5252" lon="6.30091">
        <ele>322.8</ele>
        <time>2016-02-26T14:06:06Z</time>
      </trkpt>
      <trkpt lat="43.52524" lon="6.30102">
        <ele>324.5</ele>
        <time>2016-02-26T14:06:18Z</time>
      </trkpt>
      <trkpt lat="43.52528" lon="6.30114">
        <ele>325.6</ele>
        <time>2016-02-26T14:06:29Z</time>
      </trkpt>
      <trkpt lat="43.52528" lon="6.30127">
        <ele>325.9</ele>
        <time>2016-02-26T14:06:42Z</time>
      </trkpt>
      <trkpt lat="43.52526" lon="6.3014">
        <ele>324.9</ele>
        <time>2016-02-26T14:06:54Z</time>
      </trkpt>
      <trkpt lat="43.52528" lon="6.30153">
        <ele>323.7</ele>
        <time>2016-02-26T14:07:06Z</time>
      </trkpt>
      <trkpt lat="43.52528" lon="6.30167">
        <ele>323.3</ele>
        <time>2016-02-26T14:07:15Z</time>
      </trkpt>
      <trkpt lat="43.5253" lon="6.30179">
        <ele>323.9</ele>
        <time>2016-02-26T14:07:25Z</time>
      </trkpt>
      <trkpt lat="43.52534" lon="6.30191">
        <ele>325</ele>
        <time>2016-02-26T14:07:38Z</time>
      </trkpt>
      <trkpt lat="43.52538" lon="6.30203">
        <ele>325.6</ele>
        <time>2016-02-26T14:07:50Z</time>
      </trkpt>
      <trkpt lat="43.52544" lon="6.30214">
        <ele>325.6</ele>
        <time>2016-02-26T14:08:00Z</time>
      </trkpt>
      <trkpt lat="43.52549" lon="6.30226">
        <ele>326.1</ele>
        <time>2016-02-26T14:08:11Z</time>
      </trkpt>
      <trkpt lat="43.52552" lon="6.30239">
        <ele>326.1</ele>
        <time>2016-02-26T14:08:21Z</time>
      </trkpt>
      <trkpt lat="43.5255" lon="6.30251">
        <ele>326.4</ele>
        <time>2016-02-26T14:08:35Z</time>
      </trkpt>
      <trkpt lat="43.52541" lon="6.3025">
        <ele>325.8</ele>
        <time>2016-02-26T14:08:53Z</time>
      </trkpt>
      <trkpt lat="43.52532" lon="6.30246">
        <ele>324.9</ele>
        <time>2016-02-26T14:09:10Z</time>
      </trkpt>
      <trkpt lat="43.52523" lon="6.30243">
        <ele>324.5</ele>
        <time>2016-02-26T14:09:23Z</time>
      </trkpt>
      <trkpt lat="43.52514" lon="6.30247">
        <ele>324.2</ele>
        <time>2016-02-26T14:09:39Z</time>
      </trkpt>
      <trkpt lat="43.52509" lon="6.30257">
        <ele>324.5</ele>
        <time>2016-02-26T14:10:25Z</time>
      </trkpt>
      <trkpt lat="43.525" lon="6.30265">
        <ele>325.4</ele>
        <time>2016-02-26T14:10:37Z</time>
      </trkpt>
      <trkpt lat="43.52494" lon="6.30273">
        <ele>326.7</ele>
        <time>2016-02-26T14:10:49Z</time>
      </trkpt>
      <trkpt lat="43.52487" lon="6.30281">
        <ele>328.4</ele>
        <time>2016-02-26T14:11:06Z</time>
      </trkpt>
      <trkpt lat="43.52479" lon="6.3029">
        <ele>329.7</ele>
        <time>2016-02-26T14:11:18Z</time>
      </trkpt>
      <trkpt lat="43.52472" lon="6.303">
        <ele>330.8</ele>
        <time>2016-02-26T14:11:32Z</time>
      </trkpt>
      <trkpt lat="43.52468" lon="6.30311">
        <ele>332.3</ele>
        <time>2016-02-26T14:11:44Z</time>
      </trkpt>
      <trkpt lat="43.52461" lon="6.30319">
        <ele>333.2</ele>
        <time>2016-02-26T14:11:54Z</time>
      </trkpt>
      <trkpt lat="43.52454" lon="6.30329">
        <ele>334.6</ele>
        <time>2016-02-26T14:12:05Z</time>
      </trkpt>
      <trkpt lat="43.52447" lon="6.30337">
        <ele>335.9</ele>
        <time>2016-02-26T14:12:16Z</time>
      </trkpt>
      <trkpt lat="43.5244" lon="6.30345">
        <ele>336.2</ele>
        <time>2016-02-26T14:12:26Z</time>
      </trkpt>
      <trkpt lat="43.52433" lon="6.30354">
        <ele>335.7</ele>
        <time>2016-02-26T14:12:38Z</time>
      </trkpt>
      <trkpt lat="43.52427" lon="6.30364">
        <ele>334.7</ele>
        <time>2016-02-26T14:12:51Z</time>
      </trkpt>
      <trkpt lat="43.52423" lon="6.30375">
        <ele>333.3</ele>
        <time>2016-02-26T14:13:04Z</time>
      </trkpt>
      <trkpt lat="43.52421" lon="6.30388">
        <ele>332</ele>
        <time>2016-02-26T14:13:18Z</time>
      </trkpt>
      <trkpt lat="43.52417" lon="6.30399">
        <ele>330.6</ele>
        <time>2016-02-26T14:13:33Z</time>
      </trkpt>
      <trkpt lat="43.52411" lon="6.30408">
        <ele>328.7</ele>
        <time>2016-02-26T14:13:47Z</time>
      </trkpt>
      <trkpt lat="43.52403" lon="6.30415">
        <ele>326.2</ele>
        <time>2016-02-26T14:14:10Z</time>
      </trkpt>
      <trkpt lat="43.52396" lon="6.30424">
        <ele>324.4</ele>
        <time>2016-02-26T14:14:25Z</time>
      </trkpt>
      <trkpt lat="43.52389" lon="6.30431">
        <ele>322.4</ele>
        <time>2016-02-26T14:14:43Z</time>
      </trkpt>
      <trkpt lat="43.52383" lon="6.30442">
        <ele>321.2</ele>
        <time>2016-02-26T14:14:55Z</time>
      </trkpt>
      <trkpt lat="43.5238" lon="6.30454">
        <ele>319.9</ele>
        <time>2016-02-26T14:15:07Z</time>
      </trkpt>
      <trkpt lat="43.52379" lon="6.30468">
        <ele>319.5</ele>
        <time>2016-02-26T14:15:16Z</time>
      </trkpt>
      <trkpt lat="43.52379" lon="6.30481">
        <ele>319.7</ele>
        <time>2016-02-26T14:15:28Z</time>
      </trkpt>
      <trkpt lat="43.52381" lon="6.30493">
        <ele>319.5</ele>
        <time>2016-02-26T14:15:39Z</time>
      </trkpt>
      <trkpt lat="43.52383" lon="6.30507">
        <ele>319.4</ele>
        <time>2016-02-26T14:15:49Z</time>
      </trkpt>
      <trkpt lat="43.52386" lon="6.30519">
        <ele>319.1</ele>
        <time>2016-02-26T14:15:58Z</time>
      </trkpt>
      <trkpt lat="43.52391" lon="6.3053">
        <ele>320</ele>
        <time>2016-02-26T14:16:09Z</time>
      </trkpt>
      <trkpt lat="43.52395" lon="6.30543">
        <ele>320.7</ele>
        <time>2016-02-26T14:16:20Z</time>
      </trkpt>
      <trkpt lat="43.5239" lon="6.30554">
        <ele>321.2</ele>
        <time>2016-02-26T14:16:29Z</time>
      </trkpt>
      <trkpt lat="43.52383" lon="6.30563">
        <ele>321.1</ele>
        <time>2016-02-26T14:16:39Z</time>
      </trkpt>
      <trkpt lat="43.52377" lon="6.30572">
        <ele>321.6</ele>
        <time>2016-02-26T14:16:51Z</time>
      </trkpt>
      <trkpt lat="43.5237" lon="6.30582">
        <ele>322.3</ele>
        <time>2016-02-26T14:17:04Z</time>
      </trkpt>
      <trkpt lat="43.52362" lon="6.3059">
        <ele>323.4</ele>
        <time>2016-02-26T14:17:15Z</time>
      </trkpt>
      <trkpt lat="43.52355" lon="6.30598">
        <ele>324.2</ele>
        <time>2016-02-26T14:17:24Z</time>
      </trkpt>
      <trkpt lat="43.52349" lon="6.30608">
        <ele>325.2</ele>
        <time>2016-02-26T14:17:32Z</time>
      </trkpt>
      <trkpt lat="43.52345" lon="6.3062">
        <ele>326</ele>
        <time>2016-02-26T14:17:43Z</time>
      </trkpt>
      <trkpt lat="43.52342" lon="6.30632">
        <ele>326.9</ele>
        <time>2016-02-26T14:17:53Z</time>
      </trkpt>
      <trkpt lat="43.5234" lon="6.30645">
        <ele>327.5</ele>
        <time>2016-02-26T14:18:04Z</time>
      </trkpt>
      <trkpt lat="43.52338" lon="6.30658">
        <ele>328.4</ele>
        <time>2016-02-26T14:18:15Z</time>
      </trkpt>
      <trkpt lat="43.52338" lon="6.30671">
        <ele>328.6</ele>
        <time>2016-02-26T14:18:25Z</time>
      </trkpt>
      <trkpt lat="43.52336" lon="6.30684">
        <ele>328.7</ele>
        <time>2016-02-26T14:18:34Z</time>
      </trkpt>
      <trkpt lat="43.52333" lon="6.30696">
        <ele>328.8</ele>
        <time>2016-02-26T14:18:44Z</time>
      </trkpt>
      <trkpt lat="43.52327" lon="6.30708">
        <ele>328.7</ele>
        <time>2016-02-26T14:18:54Z</time>
      </trkpt>
      <trkpt lat="43.52323" lon="6.30721">
        <ele>327.9</ele>
        <time>2016-02-26T14:19:03Z</time>
      </trkpt>
      <trkpt lat="43.52318" lon="6.30733">
        <ele>328.1</ele>
        <time>2016-02-26T14:19:11Z</time>
      </trkpt>
      <trkpt lat="43.52313" lon="6.30743">
        <ele>327.8</ele>
        <time>2016-02-26T14:19:20Z</time>
      </trkpt>
      <trkpt lat="43.5231" lon="6.30755">
        <ele>327.5</ele>
        <time>2016-02-26T14:19:30Z</time>
      </trkpt>
      <trkpt lat="43.52307" lon="6.30768">
        <ele>327.5</ele>
        <time>2016-02-26T14:19:42Z</time>
      </trkpt>
      <trkpt lat="43.52302" lon="6.30779">
        <ele>327.5</ele>
        <time>2016-02-26T14:19:52Z</time>
      </trkpt>
      <trkpt lat="43.52297" lon="6.3079">
        <ele>327.2</ele>
        <time>2016-02-26T14:19:59Z</time>
      </trkpt>
      <trkpt lat="43.52292" lon="6.30801">
        <ele>327.2</ele>
        <time>2016-02-26T14:20:08Z</time>
      </trkpt>
      <trkpt lat="43.52287" lon="6.30813">
        <ele>327.1</ele>
        <time>2016-02-26T14:20:19Z</time>
      </trkpt>
      <trkpt lat="43.52282" lon="6.30822">
        <ele>327.9</ele>
        <time>2016-02-26T14:20:29Z</time>
      </trkpt>
      <trkpt lat="43.52276" lon="6.30832">
        <ele>327.9</ele>
        <time>2016-02-26T14:20:40Z</time>
      </trkpt>
      <trkpt lat="43.52269" lon="6.30841">
        <ele>328.4</ele>
        <time>2016-02-26T14:20:52Z</time>
      </trkpt>
      <trkpt lat="43.52263" lon="6.30851">
        <ele>329</ele>
        <time>2016-02-26T14:21:02Z</time>
      </trkpt>
      <trkpt lat="43.5226" lon="6.30865">
        <ele>330</ele>
        <time>2016-02-26T14:21:13Z</time>
      </trkpt>
      <trkpt lat="43.52254" lon="6.30875">
        <ele>330.1</ele>
        <time>2016-02-26T14:21:24Z</time>
      </trkpt>
      <trkpt lat="43.52248" lon="6.30886">
        <ele>331</ele>
        <time>2016-02-26T14:21:34Z</time>
      </trkpt>
      <trkpt lat="43.52243" lon="6.30896">
        <ele>331.4</ele>
        <time>2016-02-26T14:21:44Z</time>
      </trkpt>
      <trkpt lat="43.52237" lon="6.30907">
        <ele>331.9</ele>
        <time>2016-02-26T14:21:54Z</time>
      </trkpt>
      <trkpt lat="43.52231" lon="6.30918">
        <ele>332.3</ele>
        <time>2016-02-26T14:22:04Z</time>
      </trkpt>
      <trkpt lat="43.52226" lon="6.30928">
        <ele>332.7</ele>
        <time>2016-02-26T14:22:12Z</time>
      </trkpt>
      <trkpt lat="43.52222" lon="6.3094">
        <ele>332.7</ele>
        <time>2016-02-26T14:22:21Z</time>
      </trkpt>
      <trkpt lat="43.52218" lon="6.30951">
        <ele>332.8</ele>
        <time>2016-02-26T14:22:31Z</time>
      </trkpt>
      <trkpt lat="43.52216" lon="6.30964">
        <ele>332.3</ele>
        <time>2016-02-26T14:22:42Z</time>
      </trkpt>
      <trkpt lat="43.5222" lon="6.30975">
        <ele>332.3</ele>
        <time>2016-02-26T14:23:09Z</time>
      </trkpt>
      <trkpt lat="43.52228" lon="6.30983">
        <ele>332.7</ele>
        <time>2016-02-26T14:23:50Z</time>
      </trkpt>
      <trkpt lat="43.52235" lon="6.30991">
        <ele>333.5</ele>
        <time>2016-02-26T14:24:16Z</time>
      </trkpt>
      <trkpt lat="43.52243" lon="6.30996">
        <ele>333.8</ele>
        <time>2016-02-26T14:32:06Z</time>
      </trkpt>
      <trkpt lat="43.52235" lon="6.30989">
        <ele>333.7</ele>
        <time>2016-02-26T14:33:30Z</time>
      </trkpt>
      <trkpt lat="43.52226" lon="6.30986">
        <ele>333</ele>
        <time>2016-02-26T14:33:39Z</time>
      </trkpt>
      <trkpt lat="43.52217" lon="6.3098">
        <ele>332.4</ele>
        <time>2016-02-26T14:33:49Z</time>
      </trkpt>
      <trkpt lat="43.52208" lon="6.30981">
        <ele>332.1</ele>
        <time>2016-02-26T14:34:18Z</time>
      </trkpt>
      <trkpt lat="43.52201" lon="6.30991">
        <ele>332</ele>
        <time>2016-02-26T14:34:30Z</time>
      </trkpt>
      <trkpt lat="43.52195" lon="6.31001">
        <ele>331.6</ele>
        <time>2016-02-26T14:34:41Z</time>
      </trkpt>
      <trkpt lat="43.52189" lon="6.31012">
        <ele>331.5</ele>
        <time>2016-02-26T14:34:52Z</time>
      </trkpt>
      <trkpt lat="43.52184" lon="6.31022">
        <ele>331</ele>
        <time>2016-02-26T14:35:02Z</time>
      </trkpt>
      <trkpt lat="43.52178" lon="6.31033">
        <ele>330.8</ele>
        <time>2016-02-26T14:35:12Z</time>
      </trkpt>
      <trkpt lat="43.52172" lon="6.31043">
        <ele>330.7</ele>
        <time>2016-02-26T14:35:22Z</time>
      </trkpt>
      <trkpt lat="43.52167" lon="6.31053">
        <ele>330.8</ele>
        <time>2016-02-26T14:35:31Z</time>
      </trkpt>
      <trkpt lat="43.52161" lon="6.31065">
        <ele>330.8</ele>
        <time>2016-02-26T14:35:42Z</time>
      </trkpt>
      <trkpt lat="43.52156" lon="6.31076">
        <ele>330.9</ele>
        <time>2016-02-26T14:35:51Z</time>
      </trkpt>
      <trkpt lat="43.5215" lon="6.31085">
        <ele>331.1</ele>
        <time>2016-02-26T14:36:06Z</time>
      </trkpt>
      <trkpt lat="43.52143" lon="6.31093">
        <ele>331.5</ele>
        <time>2016-02-26T14:36:18Z</time>
      </trkpt>
      <trkpt lat="43.52137" lon="6.31102">
        <ele>331.6</ele>
        <time>2016-02-26T14:36:28Z</time>
      </trkpt>
      <trkpt lat="43.5213" lon="6.3111">
        <ele>331.7</ele>
        <time>2016-02-26T14:36:40Z</time>
      </trkpt>
      <trkpt lat="43.52122" lon="6.31117">
        <ele>331.2</ele>
        <time>2016-02-26T14:36:49Z</time>
      </trkpt>
      <trkpt lat="43.52115" lon="6.31123">
        <ele>331.1</ele>
        <time>2016-02-26T14:36:58Z</time>
      </trkpt>
      <trkpt lat="43.52106" lon="6.31128">
        <ele>330.7</ele>
        <time>2016-02-26T14:37:08Z</time>
      </trkpt>
      <trkpt lat="43.52097" lon="6.31134">
        <ele>330</ele>
        <time>2016-02-26T14:37:17Z</time>
      </trkpt>
      <trkpt lat="43.52089" lon="6.31137">
        <ele>329.5</ele>
        <time>2016-02-26T14:37:28Z</time>
      </trkpt>
      <trkpt lat="43.5208" lon="6.31143">
        <ele>328.8</ele>
        <time>2016-02-26T14:37:36Z</time>
      </trkpt>
      <trkpt lat="43.52073" lon="6.31152">
        <ele>327.9</ele>
        <time>2016-02-26T14:37:45Z</time>
      </trkpt>
      <trkpt lat="43.52069" lon="6.31164">
        <ele>327.8</ele>
        <time>2016-02-26T14:37:56Z</time>
      </trkpt>
      <trkpt lat="43.52064" lon="6.31176">
        <ele>327.5</ele>
        <time>2016-02-26T14:38:06Z</time>
      </trkpt>
      <trkpt lat="43.52058" lon="6.31187">
        <ele>327.2</ele>
        <time>2016-02-26T14:38:14Z</time>
      </trkpt>
      <trkpt lat="43.52052" lon="6.31196">
        <ele>326.7</ele>
        <time>2016-02-26T14:38:27Z</time>
      </trkpt>
      <trkpt lat="43.52044" lon="6.31203">
        <ele>326.4</ele>
        <time>2016-02-26T14:38:40Z</time>
      </trkpt>
      <trkpt lat="43.52039" lon="6.31215">
        <ele>325.4</ele>
        <time>2016-02-26T14:38:52Z</time>
      </trkpt>
      <trkpt lat="43.52033" lon="6.31226">
        <ele>324.3</ele>
        <time>2016-02-26T14:39:03Z</time>
      </trkpt>
      <trkpt lat="43.52027" lon="6.31236">
        <ele>323.4</ele>
        <time>2016-02-26T14:39:25Z</time>
      </trkpt>
      <trkpt lat="43.5202" lon="6.31243">
        <ele>322.2</ele>
        <time>2016-02-26T14:39:36Z</time>
      </trkpt>
      <trkpt lat="43.5201" lon="6.31244">
        <ele>321</ele>
        <time>2016-02-26T14:39:45Z</time>
      </trkpt>
      <trkpt lat="43.52002" lon="6.3124">
        <ele>320.4</ele>
        <time>2016-02-26T14:39:54Z</time>
      </trkpt>
      <trkpt lat="43.51994" lon="6.31233">
        <ele>319.5</ele>
        <time>2016-02-26T14:40:03Z</time>
      </trkpt>
      <trkpt lat="43.51986" lon="6.31226">
        <ele>318.9</ele>
        <time>2016-02-26T14:40:14Z</time>
      </trkpt>
      <trkpt lat="43.51978" lon="6.31218">
        <ele>318.5</ele>
        <time>2016-02-26T14:40:25Z</time>
      </trkpt>
      <trkpt lat="43.5197" lon="6.3121">
        <ele>318.4</ele>
        <time>2016-02-26T14:40:35Z</time>
      </trkpt>
      <trkpt lat="43.51961" lon="6.31207">
        <ele>318.1</ele>
        <time>2016-02-26T14:40:46Z</time>
      </trkpt>
      <trkpt lat="43.51952" lon="6.3121">
        <ele>316.6</ele>
        <time>2016-02-26T14:40:56Z</time>
      </trkpt>
      <trkpt lat="43.51947" lon="6.3122">
        <ele>315.2</ele>
        <time>2016-02-26T14:41:18Z</time>
      </trkpt>
      <trkpt lat="43.51953" lon="6.3123">
        <ele>314.2</ele>
        <time>2016-02-26T14:42:52Z</time>
      </trkpt>
      <trkpt lat="43.51959" lon="6.31239">
        <ele>314.3</ele>
        <time>2016-02-26T14:43:07Z</time>
      </trkpt>
      <trkpt lat="43.5196" lon="6.31252">
        <ele>313.9</ele>
        <time>2016-02-26T14:43:19Z</time>
      </trkpt>
      <trkpt lat="43.51965" lon="6.31263">
        <ele>314.7</ele>
        <time>2016-02-26T14:43:35Z</time>
      </trkpt>
      <trkpt lat="43.51961" lon="6.31251">
        <ele>314.9</ele>
        <time>2016-02-26T14:44:48Z</time>
      </trkpt>
      <trkpt lat="43.51957" lon="6.3124">
        <ele>313.7</ele>
        <time>2016-02-26T14:45:06Z</time>
      </trkpt>
      <trkpt lat="43.51953" lon="6.31228">
        <ele>314.3</ele>
        <time>2016-02-26T14:45:23Z</time>
      </trkpt>
      <trkpt lat="43.51948" lon="6.31218">
        <ele>314.3</ele>
        <time>2016-02-26T14:45:40Z</time>
      </trkpt>
      <trkpt lat="43.51939" lon="6.31224">
        <ele>313.9</ele>
        <time>2016-02-26T14:46:50Z</time>
      </trkpt>
      <trkpt lat="43.5193" lon="6.31225">
        <ele>313</ele>
        <time>2016-02-26T14:47:05Z</time>
      </trkpt>
      <trkpt lat="43.51921" lon="6.31224">
        <ele>312</ele>
        <time>2016-02-26T14:47:23Z</time>
      </trkpt>
      <trkpt lat="43.51912" lon="6.31225">
        <ele>311.7</ele>
        <time>2016-02-26T14:48:53Z</time>
      </trkpt>
      <trkpt lat="43.51903" lon="6.31224">
        <ele>311.1</ele>
        <time>2016-02-26T14:49:06Z</time>
      </trkpt>
      <trkpt lat="43.51893" lon="6.31224">
        <ele>310.4</ele>
        <time>2016-02-26T14:49:18Z</time>
      </trkpt>
      <trkpt lat="43.51883" lon="6.31224">
        <ele>309.9</ele>
        <time>2016-02-26T14:49:40Z</time>
      </trkpt>
      <trkpt lat="43.51873" lon="6.31225">
        <ele>309.7</ele>
        <time>2016-02-26T14:49:50Z</time>
      </trkpt>
      <trkpt lat="43.51864" lon="6.31227">
        <ele>309.2</ele>
        <time>2016-02-26T14:50:00Z</time>
      </trkpt>
      <trkpt lat="43.51854" lon="6.31224">
        <ele>308.5</ele>
        <time>2016-02-26T14:50:10Z</time>
      </trkpt>
      <trkpt lat="43.51845" lon="6.3122">
        <ele>308.1</ele>
        <time>2016-02-26T14:50:19Z</time>
      </trkpt>
      <trkpt lat="43.51837" lon="6.31214">
        <ele>307.6</ele>
        <time>2016-02-26T14:50:29Z</time>
      </trkpt>
      <trkpt lat="43.51828" lon="6.31211">
        <ele>307.1</ele>
        <time>2016-02-26T14:50:38Z</time>
      </trkpt>
      <trkpt lat="43.51818" lon="6.3121">
        <ele>306.6</ele>
        <time>2016-02-26T14:50:46Z</time>
      </trkpt>
      <trkpt lat="43.51809" lon="6.31207">
        <ele>306.3</ele>
        <time>2016-02-26T14:50:55Z</time>
      </trkpt>
      <trkpt lat="43.51801" lon="6.31201">
        <ele>305.8</ele>
        <time>2016-02-26T14:51:05Z</time>
      </trkpt>
      <trkpt lat="43.51794" lon="6.31193">
        <ele>306</ele>
        <time>2016-02-26T14:51:18Z</time>
      </trkpt>
      <trkpt lat="43.51787" lon="6.31184">
        <ele>305.8</ele>
        <time>2016-02-26T14:51:27Z</time>
      </trkpt>
      <trkpt lat="43.51779" lon="6.31177">
        <ele>305.4</ele>
        <time>2016-02-26T14:51:36Z</time>
      </trkpt>
      <trkpt lat="43.51772" lon="6.31169">
        <ele>305.4</ele>
        <time>2016-02-26T14:51:45Z</time>
      </trkpt>
      <trkpt lat="43.51765" lon="6.31161">
        <ele>305.7</ele>
        <time>2016-02-26T14:52:03Z</time>
      </trkpt>
      <trkpt lat="43.51756" lon="6.31157">
        <ele>305.5</ele>
        <time>2016-02-26T14:52:25Z</time>
      </trkpt>
      <trkpt lat="43.51749" lon="6.31148">
        <ele>304.9</ele>
        <time>2016-02-26T14:52:39Z</time>
      </trkpt>
      <trkpt lat="43.51742" lon="6.31139">
        <ele>304.7</ele>
        <time>2016-02-26T14:52:54Z</time>
      </trkpt>
      <trkpt lat="43.51734" lon="6.31132">
        <ele>304.4</ele>
        <time>2016-02-26T14:53:07Z</time>
      </trkpt>
      <trkpt lat="43.51726" lon="6.31125">
        <ele>303.9</ele>
        <time>2016-02-26T14:53:18Z</time>
      </trkpt>
      <trkpt lat="43.51718" lon="6.3112">
        <ele>303.3</ele>
        <time>2016-02-26T14:53:29Z</time>
      </trkpt>
      <trkpt lat="43.51709" lon="6.3112">
        <ele>303.1</ele>
        <time>2016-02-26T14:53:58Z</time>
      </trkpt>
      <trkpt lat="43.517" lon="6.31116">
        <ele>302.5</ele>
        <time>2016-02-26T14:54:17Z</time>
      </trkpt>
      <trkpt lat="43.51691" lon="6.31111">
        <ele>302.6</ele>
        <time>2016-02-26T14:54:30Z</time>
      </trkpt>
      <trkpt lat="43.51682" lon="6.31105">
        <ele>302</ele>
        <time>2016-02-26T14:54:42Z</time>
      </trkpt>
      <trkpt lat="43.51673" lon="6.31104">
        <ele>301.7</ele>
        <time>2016-02-26T14:54:52Z</time>
      </trkpt>
      <trkpt lat="43.51664" lon="6.31105">
        <ele>300.9</ele>
        <time>2016-02-26T14:55:04Z</time>
      </trkpt>
      <trkpt lat="43.51655" lon="6.31108">
        <ele>299.9</ele>
        <time>2016-02-26T14:55:13Z</time>
      </trkpt>
      <trkpt lat="43.51645" lon="6.31112">
        <ele>299.3</ele>
        <time>2016-02-26T14:55:25Z</time>
      </trkpt>
      <trkpt lat="43.51636" lon="6.31117">
        <ele>298.9</ele>
        <time>2016-02-26T14:55:36Z</time>
      </trkpt>
      <trkpt lat="43.51628" lon="6.31122">
        <ele>298.7</ele>
        <time>2016-02-26T14:55:47Z</time>
      </trkpt>
      <trkpt lat="43.5162" lon="6.31128">
        <ele>298.5</ele>
        <time>2016-02-26T14:56:00Z</time>
      </trkpt>
      <trkpt lat="43.51621" lon="6.31141">
        <ele>297.7</ele>
        <time>2016-02-26T14:56:23Z</time>
      </trkpt>
      <trkpt lat="43.51624" lon="6.31153">
        <ele>298.1</ele>
        <time>2016-02-26T14:56:35Z</time>
      </trkpt>
      <trkpt lat="43.51626" lon="6.31165">
        <ele>298.7</ele>
        <time>2016-02-26T14:56:46Z</time>
      </trkpt>
      <trkpt lat="43.51629" lon="6.31178">
        <ele>299.4</ele>
        <time>2016-02-26T14:56:58Z</time>
      </trkpt>
      <trkpt lat="43.51629" lon="6.31191">
        <ele>300.1</ele>
        <time>2016-02-26T14:57:10Z</time>
      </trkpt>
      <trkpt lat="43.51631" lon="6.31204">
        <ele>301</ele>
        <time>2016-02-26T14:57:23Z</time>
      </trkpt>
      <trkpt lat="43.5163" lon="6.31217">
        <ele>301.2</ele>
        <time>2016-02-26T14:57:34Z</time>
      </trkpt>
      <trkpt lat="43.51627" lon="6.31229">
        <ele>301.5</ele>
        <time>2016-02-26T14:57:43Z</time>
      </trkpt>
      <trkpt lat="43.5163" lon="6.31241">
        <ele>301.1</ele>
        <time>2016-02-26T14:57:54Z</time>
      </trkpt>
      <trkpt lat="43.51635" lon="6.31252">
        <ele>301.4</ele>
        <time>2016-02-26T14:58:08Z</time>
      </trkpt>
      <trkpt lat="43.51637" lon="6.31266">
        <ele>301</ele>
        <time>2016-02-26T14:58:20Z</time>
      </trkpt>
      <trkpt lat="43.51634" lon="6.31278">
        <ele>301.3</ele>
        <time>2016-02-26T14:58:49Z</time>
      </trkpt>
      <trkpt lat="43.51626" lon="6.31284">
        <ele>301</ele>
        <time>2016-02-26T14:58:58Z</time>
      </trkpt>
      <trkpt lat="43.51617" lon="6.31289">
        <ele>301</ele>
        <time>2016-02-26T14:59:04Z</time>
      </trkpt>
      <trkpt lat="43.5161" lon="6.31296">
        <ele>301.4</ele>
        <time>2016-02-26T14:59:12Z</time>
      </trkpt>
      <trkpt lat="43.51603" lon="6.31306">
        <ele>301.8</ele>
        <time>2016-02-26T14:59:22Z</time>
      </trkpt>
      <trkpt lat="43.51598" lon="6.31318">
        <ele>301.9</ele>
        <time>2016-02-26T14:59:32Z</time>
      </trkpt>
      <trkpt lat="43.51594" lon="6.3133">
        <ele>302.4</ele>
        <time>2016-02-26T15:00:16Z</time>
      </trkpt>
      <trkpt lat="43.51589" lon="6.31341">
        <ele>302.3</ele>
        <time>2016-02-26T15:00:31Z</time>
      </trkpt>
      <trkpt lat="43.51587" lon="6.31355">
        <ele>301.2</ele>
        <time>2016-02-26T15:00:44Z</time>
      </trkpt>
      <trkpt lat="43.51587" lon="6.31368">
        <ele>300.6</ele>
        <time>2016-02-26T15:00:56Z</time>
      </trkpt>
      <trkpt lat="43.51585" lon="6.31381">
        <ele>299.7</ele>
        <time>2016-02-26T15:01:05Z</time>
      </trkpt>
      <trkpt lat="43.51584" lon="6.31394">
        <ele>299.3</ele>
        <time>2016-02-26T15:01:16Z</time>
      </trkpt>
      <trkpt lat="43.51584" lon="6.31407">
        <ele>299.3</ele>
        <time>2016-02-26T15:01:24Z</time>
      </trkpt>
      <trkpt lat="43.51584" lon="6.31419">
        <ele>299.2</ele>
        <time>2016-02-26T15:01:33Z</time>
      </trkpt>
      <trkpt lat="43.51588" lon="6.3143">
        <ele>299.6</ele>
        <time>2016-02-26T15:01:42Z</time>
      </trkpt>
      <trkpt lat="43.51596" lon="6.3144">
        <ele>300.2</ele>
        <time>2016-02-26T15:01:52Z</time>
      </trkpt>
      <trkpt lat="43.51603" lon="6.31449">
        <ele>301.8</ele>
        <time>2016-02-26T15:02:02Z</time>
      </trkpt>
      <trkpt lat="43.51607" lon="6.31461">
        <ele>302.9</ele>
        <time>2016-02-26T15:02:13Z</time>
      </trkpt>
      <trkpt lat="43.51613" lon="6.3147">
        <ele>304</ele>
        <time>2016-02-26T15:02:23Z</time>
      </trkpt>
      <trkpt lat="43.51621" lon="6.31478">
        <ele>304.4</ele>
        <time>2016-02-26T15:02:32Z</time>
      </trkpt>
      <trkpt lat="43.51627" lon="6.31489">
        <ele>304.6</ele>
        <time>2016-02-26T15:02:42Z</time>
      </trkpt>
      <trkpt lat="43.51633" lon="6.31499">
        <ele>304.8</ele>
        <time>2016-02-26T15:02:52Z</time>
      </trkpt>
      <trkpt lat="43.51639" lon="6.3151">
        <ele>305.1</ele>
        <time>2016-02-26T15:03:02Z</time>
      </trkpt>
      <trkpt lat="43.51646" lon="6.31519">
        <ele>305.4</ele>
        <time>2016-02-26T15:03:11Z</time>
      </trkpt>
      <trkpt lat="43.51652" lon="6.3153">
        <ele>305.5</ele>
        <time>2016-02-26T15:03:21Z</time>
      </trkpt>
      <trkpt lat="43.51658" lon="6.3154">
        <ele>306.3</ele>
        <time>2016-02-26T15:03:32Z</time>
      </trkpt>
      <trkpt lat="43.51663" lon="6.31551">
        <ele>306.7</ele>
        <time>2016-02-26T15:03:43Z</time>
      </trkpt>
      <trkpt lat="43.51669" lon="6.31561">
        <ele>307.1</ele>
        <time>2016-02-26T15:03:56Z</time>
      </trkpt>
      <trkpt lat="43.51673" lon="6.31573">
        <ele>306.9</ele>
        <time>2016-02-26T15:04:06Z</time>
      </trkpt>
      <trkpt lat="43.5168" lon="6.31582">
        <ele>307.2</ele>
        <time>2016-02-26T15:04:15Z</time>
      </trkpt>
      <trkpt lat="43.51686" lon="6.31591">
        <ele>307</ele>
        <time>2016-02-26T15:04:24Z</time>
      </trkpt>
      <trkpt lat="43.51694" lon="6.316">
        <ele>307.1</ele>
        <time>2016-02-26T15:04:35Z</time>
      </trkpt>
      <trkpt lat="43.51701" lon="6.31609">
        <ele>308.1</ele>
        <time>2016-02-26T15:04:47Z</time>
      </trkpt>
      <trkpt lat="43.51709" lon="6.31617">
        <ele>308.6</ele>
        <time>2016-02-26T15:05:00Z</time>
      </trkpt>
      <trkpt lat="43.51717" lon="6.31625">
        <ele>309.5</ele>
        <time>2016-02-26T15:05:11Z</time>
      </trkpt>
      <trkpt lat="43.51723" lon="6.31634">
        <ele>311.5</ele>
        <time>2016-02-26T15:05:29Z</time>
      </trkpt>
      <trkpt lat="43.51723" lon="6.31647">
        <ele>312.5</ele>
        <time>2016-02-26T15:07:16Z</time>
      </trkpt>
      <trkpt lat="43.51719" lon="6.31659">
        <ele>313.3</ele>
        <time>2016-02-26T15:07:32Z</time>
      </trkpt>
      <trkpt lat="43.51718" lon="6.31673">
        <ele>314.6</ele>
        <time>2016-02-26T15:07:46Z</time>
      </trkpt>
      <trkpt lat="43.51719" lon="6.31685">
        <ele>314.9</ele>
        <time>2016-02-26T15:08:00Z</time>
      </trkpt>
      <trkpt lat="43.51719" lon="6.31698">
        <ele>315</ele>
        <time>2016-02-26T15:08:12Z</time>
      </trkpt>
      <trkpt lat="43.5172" lon="6.3171">
        <ele>315.2</ele>
        <time>2016-02-26T15:08:26Z</time>
      </trkpt>
      <trkpt lat="43.51717" lon="6.31723">
        <ele>315.4</ele>
        <time>2016-02-26T15:08:38Z</time>
      </trkpt>
      <trkpt lat="43.51717" lon="6.31736">
        <ele>315.8</ele>
        <time>2016-02-26T15:08:50Z</time>
      </trkpt>
      <trkpt lat="43.51716" lon="6.31748">
        <ele>315.9</ele>
        <time>2016-02-26T15:09:01Z</time>
      </trkpt>
      <trkpt lat="43.51715" lon="6.31761">
        <ele>316.2</ele>
        <time>2016-02-26T15:09:13Z</time>
      </trkpt>
      <trkpt lat="43.51715" lon="6.31774">
        <ele>316.4</ele>
        <time>2016-02-26T15:09:25Z</time>
      </trkpt>
      <trkpt lat="43.51714" lon="6.31788">
        <ele>316.5</ele>
        <time>2016-02-26T15:09:35Z</time>
      </trkpt>
      <trkpt lat="43.51713" lon="6.31801">
        <ele>316.2</ele>
        <time>2016-02-26T15:09:46Z</time>
      </trkpt>
      <trkpt lat="43.51711" lon="6.31813">
        <ele>316.6</ele>
        <time>2016-02-26T15:09:57Z</time>
      </trkpt>
      <trkpt lat="43.51709" lon="6.31827">
        <ele>317.3</ele>
        <time>2016-02-26T15:10:08Z</time>
      </trkpt>
      <trkpt lat="43.51709" lon="6.31839">
        <ele>318.1</ele>
        <time>2016-02-26T15:10:19Z</time>
      </trkpt>
      <trkpt lat="43.51708" lon="6.31853">
        <ele>319.5</ele>
        <time>2016-02-26T15:10:30Z</time>
      </trkpt>
      <trkpt lat="43.51706" lon="6.31866">
        <ele>320.5</ele>
        <time>2016-02-26T15:10:41Z</time>
      </trkpt>
      <trkpt lat="43.51703" lon="6.31879">
        <ele>321</ele>
        <time>2016-02-26T15:10:52Z</time>
      </trkpt>
      <trkpt lat="43.51703" lon="6.31893">
        <ele>322.1</ele>
        <time>2016-02-26T15:11:04Z</time>
      </trkpt>
      <trkpt lat="43.51701" lon="6.31906">
        <ele>323.1</ele>
        <time>2016-02-26T15:11:17Z</time>
      </trkpt>
      <trkpt lat="43.51698" lon="6.31919">
        <ele>323.9</ele>
        <time>2016-02-26T15:11:30Z</time>
      </trkpt>
      <trkpt lat="43.51696" lon="6.31932">
        <ele>325.5</ele>
        <time>2016-02-26T15:11:43Z</time>
      </trkpt>
      <trkpt lat="43.51695" lon="6.31945">
        <ele>326.4</ele>
        <time>2016-02-26T15:11:56Z</time>
      </trkpt>
      <trkpt lat="43.51694" lon="6.31957">
        <ele>327.7</ele>
        <time>2016-02-26T15:12:09Z</time>
      </trkpt>
      <trkpt lat="43.51691" lon="6.3197">
        <ele>328.7</ele>
        <time>2016-02-26T15:12:21Z</time>
      </trkpt>
      <trkpt lat="43.51688" lon="6.31982">
        <ele>329.9</ele>
        <time>2016-02-26T15:12:33Z</time>
      </trkpt>
      <trkpt lat="43.51685" lon="6.31995">
        <ele>330.5</ele>
        <time>2016-02-26T15:12:42Z</time>
      </trkpt>
      <trkpt lat="43.51685" lon="6.32007">
        <ele>331.4</ele>
        <time>2016-02-26T15:12:55Z</time>
      </trkpt>
      <trkpt lat="43.51686" lon="6.3202">
        <ele>331.9</ele>
        <time>2016-02-26T15:13:06Z</time>
      </trkpt>
      <trkpt lat="43.51686" lon="6.32033">
        <ele>332.4</ele>
        <time>2016-02-26T15:13:19Z</time>
      </trkpt>
      <trkpt lat="43.51686" lon="6.32046">
        <ele>333.1</ele>
        <time>2016-02-26T15:13:31Z</time>
      </trkpt>
      <trkpt lat="43.51686" lon="6.32059">
        <ele>333.6</ele>
        <time>2016-02-26T15:13:42Z</time>
      </trkpt>
      <trkpt lat="43.51685" lon="6.32072">
        <ele>334.6</ele>
        <time>2016-02-26T15:13:55Z</time>
      </trkpt>
      <trkpt lat="43.51684" lon="6.32086">
        <ele>334.4</ele>
        <time>2016-02-26T15:14:06Z</time>
      </trkpt>
      <trkpt lat="43.5168" lon="6.32098">
        <ele>334.9</ele>
        <time>2016-02-26T15:14:15Z</time>
      </trkpt>
      <trkpt lat="43.51678" lon="6.32111">
        <ele>334.7</ele>
        <time>2016-02-26T15:14:26Z</time>
      </trkpt>
      <trkpt lat="43.51678" lon="6.32123">
        <ele>335.1</ele>
        <time>2016-02-26T15:14:36Z</time>
      </trkpt>
      <trkpt lat="43.51678" lon="6.32137">
        <ele>335.8</ele>
        <time>2016-02-26T15:14:47Z</time>
      </trkpt>
      <trkpt lat="43.51678" lon="6.32149">
        <ele>336.7</ele>
        <time>2016-02-26T15:14:58Z</time>
      </trkpt>
      <trkpt lat="43.51678" lon="6.32162">
        <ele>336.8</ele>
        <time>2016-02-26T15:15:10Z</time>
      </trkpt>
      <trkpt lat="43.51679" lon="6.32176">
        <ele>336.9</ele>
        <time>2016-02-26T15:15:21Z</time>
      </trkpt>
      <trkpt lat="43.51684" lon="6.32187">
        <ele>337.6</ele>
        <time>2016-02-26T15:15:32Z</time>
      </trkpt>
      <trkpt lat="43.51685" lon="6.322">
        <ele>338.3</ele>
        <time>2016-02-26T15:15:43Z</time>
      </trkpt>
      <trkpt lat="43.51689" lon="6.32212">
        <ele>338.9</ele>
        <time>2016-02-26T15:15:54Z</time>
      </trkpt>
      <trkpt lat="43.51694" lon="6.32223">
        <ele>339.6</ele>
        <time>2016-02-26T15:16:06Z</time>
      </trkpt>
      <trkpt lat="43.51696" lon="6.32235">
        <ele>339.9</ele>
        <time>2016-02-26T15:16:16Z</time>
      </trkpt>
      <trkpt lat="43.51699" lon="6.32247">
        <ele>340.4</ele>
        <time>2016-02-26T15:16:27Z</time>
      </trkpt>
      <trkpt lat="43.51704" lon="6.32258">
        <ele>341</ele>
        <time>2016-02-26T15:16:38Z</time>
      </trkpt>
      <trkpt lat="43.5171" lon="6.32268">
        <ele>341.8</ele>
        <time>2016-02-26T15:16:47Z</time>
      </trkpt>
      <trkpt lat="43.51717" lon="6.32276">
        <ele>342.3</ele>
        <time>2016-02-26T15:16:57Z</time>
      </trkpt>
      <trkpt lat="43.51724" lon="6.32284">
        <ele>342.9</ele>
        <time>2016-02-26T15:17:07Z</time>
      </trkpt>
      <trkpt lat="43.51731" lon="6.32293">
        <ele>343.7</ele>
        <time>2016-02-26T15:17:18Z</time>
      </trkpt>
      <trkpt lat="43.51737" lon="6.32302">
        <ele>344.1</ele>
        <time>2016-02-26T15:17:29Z</time>
      </trkpt>
      <trkpt lat="43.51744" lon="6.32311">
        <ele>344.5</ele>
        <time>2016-02-26T15:17:40Z</time>
      </trkpt>
      <trkpt lat="43.51751" lon="6.32321">
        <ele>344.7</ele>
        <time>2016-02-26T15:17:52Z</time>
      </trkpt>
      <trkpt lat="43.51759" lon="6.32328">
        <ele>345.4</ele>
        <time>2016-02-26T15:18:13Z</time>
      </trkpt>
      <trkpt lat="43.51768" lon="6.32327">
        <ele>346.1</ele>
        <time>2016-02-26T15:18:33Z</time>
      </trkpt>
      <trkpt lat="43.51777" lon="6.32325">
        <ele>346.5</ele>
        <time>2016-02-26T15:19:48Z</time>
      </trkpt>
      <trkpt lat="43.51771" lon="6.32334">
        <ele>347.2</ele>
        <time>2016-02-26T15:22:12Z</time>
      </trkpt>
      <trkpt lat="43.51774" lon="6.32346">
        <ele>346.6</ele>
        <time>2016-02-26T15:23:07Z</time>
      </trkpt>
      <trkpt lat="43.51771" lon="6.32358">
        <ele>346.3</ele>
        <time>2016-02-26T15:23:57Z</time>
      </trkpt>
      <trkpt lat="43.51767" lon="6.32371">
        <ele>346.4</ele>
        <time>2016-02-26T15:25:29Z</time>
      </trkpt>
      <trkpt lat="43.51761" lon="6.32381">
        <ele>347.1</ele>
        <time>2016-02-26T15:26:12Z</time>
      </trkpt>
      <trkpt lat="43.51755" lon="6.32389">
        <ele>347.3</ele>
        <time>2016-02-26T15:26:27Z</time>
      </trkpt>
      <trkpt lat="43.51748" lon="6.32399">
        <ele>347.9</ele>
        <time>2016-02-26T15:26:39Z</time>
      </trkpt>
      <trkpt lat="43.51745" lon="6.32411">
        <ele>348.2</ele>
        <time>2016-02-26T15:26:48Z</time>
      </trkpt>
      <trkpt lat="43.51743" lon="6.32423">
        <ele>348.7</ele>
        <time>2016-02-26T15:27:00Z</time>
      </trkpt>
      <trkpt lat="43.51741" lon="6.32435">
        <ele>349</ele>
        <time>2016-02-26T15:27:10Z</time>
      </trkpt>
      <trkpt lat="43.51737" lon="6.32447">
        <ele>349.4</ele>
        <time>2016-02-26T15:27:22Z</time>
      </trkpt>
      <trkpt lat="43.51733" lon="6.32458">
        <ele>349.8</ele>
        <time>2016-02-26T15:27:34Z</time>
      </trkpt>
      <trkpt lat="43.51737" lon="6.3247">
        <ele>350</ele>
        <time>2016-02-26T15:27:45Z</time>
      </trkpt>
      <trkpt lat="43.51743" lon="6.3248">
        <ele>350.3</ele>
        <time>2016-02-26T15:27:55Z</time>
      </trkpt>
      <trkpt lat="43.51746" lon="6.32492">
        <ele>350.9</ele>
        <time>2016-02-26T15:28:05Z</time>
      </trkpt>
      <trkpt lat="43.5175" lon="6.32504">
        <ele>350.8</ele>
        <time>2016-02-26T15:28:14Z</time>
      </trkpt>
      <trkpt lat="43.51753" lon="6.32517">
        <ele>350.5</ele>
        <time>2016-02-26T15:28:23Z</time>
      </trkpt>
      <trkpt lat="43.51755" lon="6.32529">
        <ele>350.1</ele>
        <time>2016-02-26T15:28:34Z</time>
      </trkpt>
      <trkpt lat="43.51753" lon="6.32541">
        <ele>349.6</ele>
        <time>2016-02-26T15:28:44Z</time>
      </trkpt>
      <trkpt lat="43.5175" lon="6.32554">
        <ele>349.1</ele>
        <time>2016-02-26T15:28:53Z</time>
      </trkpt>
      <trkpt lat="43.51746" lon="6.32566">
        <ele>348.6</ele>
        <time>2016-02-26T15:29:02Z</time>
      </trkpt>
      <trkpt lat="43.51744" lon="6.32577">
        <ele>348.5</ele>
        <time>2016-02-26T15:29:11Z</time>
      </trkpt>
      <trkpt lat="43.51739" lon="6.3259">
        <ele>348.1</ele>
        <time>2016-02-26T15:29:22Z</time>
      </trkpt>
      <trkpt lat="43.51736" lon="6.32602">
        <ele>347.9</ele>
        <time>2016-02-26T15:29:32Z</time>
      </trkpt>
      <trkpt lat="43.51733" lon="6.32613">
        <ele>348</ele>
        <time>2016-02-26T15:29:42Z</time>
      </trkpt>
      <trkpt lat="43.5173" lon="6.32626">
        <ele>347.7</ele>
        <time>2016-02-26T15:29:52Z</time>
      </trkpt>
      <trkpt lat="43.51728" lon="6.32639">
        <ele>347.8</ele>
        <time>2016-02-26T15:30:11Z</time>
      </trkpt>
      <trkpt lat="43.51723" lon="6.3265">
        <ele>347.9</ele>
        <time>2016-02-26T15:30:26Z</time>
      </trkpt>
      <trkpt lat="43.5172" lon="6.32662">
        <ele>347.5</ele>
        <time>2016-02-26T15:31:09Z</time>
      </trkpt>
      <trkpt lat="43.51729" lon="6.32664">
        <ele>346.6</ele>
        <time>2016-02-26T15:33:21Z</time>
      </trkpt>
      <trkpt lat="43.51725" lon="6.32666">
        <ele>347.5</ele>
        <time>2016-02-26T15:37:48Z</time>
      </trkpt>
    </trkseg>
  </trk>
</gpx>